<?xml version="1.0" encoding="UTF-8" standalone="no" ?>
<gpx xmlns="http://www.topografix.com/GPX/1/1" xmlns:xsi="http://www.w3.org/2001/XMLSchema-instance" xsi:schemaLocation="http://www.topografix.com/GPX/1/1 http://www.topografix.com/GPX/1/1/gpx.xsd" version="1.1" creator="VisuGPX - https://www.visugpx.com">
  <metadata>
    <name>83-Vj-2012-04-05-Vérignon - La Bigue - Saint Priest</name>
    <desc><![CDATA[Vérignon - La Bigue - Saint Priest]]></desc>
  </metadata>
  <trk>
    <name><![CDATA[2012-05-04-verignon]]></name>
    <trkseg>
      <trkpt lat="43.66211" lon="6.22644">
        <ele>793.452392</ele>
        <time>2012-05-04T07:28:07Z</time>
      </trkpt>
      <trkpt lat="43.66207" lon="6.22653">
        <ele>792.937866</ele>
        <time>2012-05-04T07:28:23Z</time>
      </trkpt>
      <trkpt lat="43.66203" lon="6.22663">
        <ele>792.916625</ele>
        <time>2012-05-04T07:28:30Z</time>
      </trkpt>
      <trkpt lat="43.66198" lon="6.22672">
        <ele>792.781494</ele>
        <time>2012-05-04T07:28:36Z</time>
      </trkpt>
      <trkpt lat="43.66197" lon="6.22674">
        <ele>792.898437</ele>
        <time>2012-05-04T07:28:37Z</time>
      </trkpt>
      <trkpt lat="43.66183" lon="6.22669">
        <ele>793.1</ele>
        <time>2012-05-04T07:28:52Z</time>
      </trkpt>
      <trkpt lat="43.66174" lon="6.22665">
        <ele>793.1</ele>
        <time>2012-05-04T07:29:48Z</time>
      </trkpt>
      <trkpt lat="43.66174" lon="6.22664">
        <ele>793.2</ele>
        <time>2012-05-04T07:29:49Z</time>
      </trkpt>
      <trkpt lat="43.6618" lon="6.22674">
        <ele>793.1</ele>
        <time>2012-05-04T07:30:57Z</time>
      </trkpt>
      <trkpt lat="43.66194" lon="6.22681">
        <ele>793.9</ele>
        <time>2012-05-04T07:31:08Z</time>
      </trkpt>
      <trkpt lat="43.662" lon="6.22673">
        <ele>795.3</ele>
        <time>2012-05-04T07:31:17Z</time>
      </trkpt>
      <trkpt lat="43.66206" lon="6.22665">
        <ele>795.3</ele>
        <time>2012-05-04T07:31:22Z</time>
      </trkpt>
      <trkpt lat="43.66212" lon="6.22656">
        <ele>794.3</ele>
        <time>2012-05-04T07:31:30Z</time>
      </trkpt>
      <trkpt lat="43.66217" lon="6.22648">
        <ele>795.4</ele>
        <time>2012-05-04T07:31:38Z</time>
      </trkpt>
      <trkpt lat="43.6621" lon="6.22654">
        <ele>794.7</ele>
        <time>2012-05-04T07:31:51Z</time>
      </trkpt>
      <trkpt lat="43.66205" lon="6.22663">
        <ele>794.2</ele>
        <time>2012-05-04T07:31:57Z</time>
      </trkpt>
      <trkpt lat="43.66203" lon="6.22664">
        <ele>793.9</ele>
        <time>2012-05-04T07:31:58Z</time>
      </trkpt>
      <trkpt lat="43.6619" lon="6.22677">
        <ele>793.8</ele>
        <time>2012-05-04T07:32:08Z</time>
      </trkpt>
      <trkpt lat="43.66182" lon="6.22671">
        <ele>793.4</ele>
        <time>2012-05-04T07:32:15Z</time>
      </trkpt>
      <trkpt lat="43.66175" lon="6.22665">
        <ele>793.1</ele>
        <time>2012-05-04T07:32:21Z</time>
      </trkpt>
      <trkpt lat="43.66167" lon="6.22666">
        <ele>792.7</ele>
        <time>2012-05-04T07:32:31Z</time>
      </trkpt>
      <trkpt lat="43.66159" lon="6.22668">
        <ele>793.1</ele>
        <time>2012-05-04T07:32:37Z</time>
      </trkpt>
      <trkpt lat="43.66151" lon="6.2267">
        <ele>793</ele>
        <time>2012-05-04T07:32:42Z</time>
      </trkpt>
      <trkpt lat="43.66143" lon="6.22675">
        <ele>793.2</ele>
        <time>2012-05-04T07:32:48Z</time>
      </trkpt>
      <trkpt lat="43.6614" lon="6.22686">
        <ele>793.4</ele>
        <time>2012-05-04T07:32:53Z</time>
      </trkpt>
      <trkpt lat="43.66135" lon="6.22695">
        <ele>793.5</ele>
        <time>2012-05-04T07:32:59Z</time>
      </trkpt>
      <trkpt lat="43.66135" lon="6.22697">
        <ele>793.2</ele>
        <time>2012-05-04T07:33:00Z</time>
      </trkpt>
      <trkpt lat="43.66138" lon="6.22718">
        <ele>795.6</ele>
        <time>2012-05-04T07:33:15Z</time>
      </trkpt>
      <trkpt lat="43.66136" lon="6.2273">
        <ele>796.9</ele>
        <time>2012-05-04T07:33:23Z</time>
      </trkpt>
      <trkpt lat="43.66133" lon="6.2274">
        <ele>798.6</ele>
        <time>2012-05-04T07:33:33Z</time>
      </trkpt>
      <trkpt lat="43.66125" lon="6.22744">
        <ele>800.6</ele>
        <time>2012-05-04T07:33:39Z</time>
      </trkpt>
      <trkpt lat="43.66117" lon="6.22749">
        <ele>800.9</ele>
        <time>2012-05-04T07:33:47Z</time>
      </trkpt>
      <trkpt lat="43.6611" lon="6.22755">
        <ele>801.1</ele>
        <time>2012-05-04T07:33:52Z</time>
      </trkpt>
      <trkpt lat="43.66107" lon="6.22766">
        <ele>801</ele>
        <time>2012-05-04T07:33:59Z</time>
      </trkpt>
      <trkpt lat="43.66103" lon="6.22775">
        <ele>801.6</ele>
        <time>2012-05-04T07:34:07Z</time>
      </trkpt>
      <trkpt lat="43.66102" lon="6.22777">
        <ele>801.3</ele>
        <time>2012-05-04T07:34:08Z</time>
      </trkpt>
      <trkpt lat="43.66098" lon="6.22795">
        <ele>801.4</ele>
        <time>2012-05-04T07:34:18Z</time>
      </trkpt>
      <trkpt lat="43.66093" lon="6.22805">
        <ele>802.3</ele>
        <time>2012-05-04T07:34:25Z</time>
      </trkpt>
      <trkpt lat="43.66092" lon="6.22817">
        <ele>803</ele>
        <time>2012-05-04T07:34:34Z</time>
      </trkpt>
      <trkpt lat="43.66088" lon="6.22827">
        <ele>804.5</ele>
        <time>2012-05-04T07:34:43Z</time>
      </trkpt>
      <trkpt lat="43.66087" lon="6.22839">
        <ele>805</ele>
        <time>2012-05-04T07:34:54Z</time>
      </trkpt>
      <trkpt lat="43.66084" lon="6.2285">
        <ele>806.2</ele>
        <time>2012-05-04T07:35:05Z</time>
      </trkpt>
      <trkpt lat="43.66083" lon="6.22861">
        <ele>805.5</ele>
        <time>2012-05-04T07:35:13Z</time>
      </trkpt>
      <trkpt lat="43.66083" lon="6.22862">
        <ele>805.9</ele>
        <time>2012-05-04T07:35:14Z</time>
      </trkpt>
      <trkpt lat="43.6608" lon="6.22884">
        <ele>807.5</ele>
        <time>2012-05-04T07:35:31Z</time>
      </trkpt>
      <trkpt lat="43.66079" lon="6.22895">
        <ele>808.4</ele>
        <time>2012-05-04T07:35:41Z</time>
      </trkpt>
      <trkpt lat="43.66079" lon="6.22907">
        <ele>807.4</ele>
        <time>2012-05-04T07:35:55Z</time>
      </trkpt>
      <trkpt lat="43.6608" lon="6.22919">
        <ele>809</ele>
        <time>2012-05-04T07:36:08Z</time>
      </trkpt>
      <trkpt lat="43.66082" lon="6.22931">
        <ele>809.9</ele>
        <time>2012-05-04T07:36:21Z</time>
      </trkpt>
      <trkpt lat="43.66082" lon="6.22932">
        <ele>810.4</ele>
        <time>2012-05-04T07:36:22Z</time>
      </trkpt>
      <trkpt lat="43.66087" lon="6.22954">
        <ele>811.7</ele>
        <time>2012-05-04T07:36:45Z</time>
      </trkpt>
      <trkpt lat="43.66088" lon="6.22965">
        <ele>812.3</ele>
        <time>2012-05-04T07:37:04Z</time>
      </trkpt>
      <trkpt lat="43.66094" lon="6.22975">
        <ele>813.1</ele>
        <time>2012-05-04T07:37:17Z</time>
      </trkpt>
      <trkpt lat="43.66099" lon="6.22984">
        <ele>814.2</ele>
        <time>2012-05-04T07:37:25Z</time>
      </trkpt>
      <trkpt lat="43.66099" lon="6.22985">
        <ele>814.2</ele>
        <time>2012-05-04T07:37:26Z</time>
      </trkpt>
      <trkpt lat="43.66104" lon="6.23008">
        <ele>816.5</ele>
        <time>2012-05-04T07:37:53Z</time>
      </trkpt>
      <trkpt lat="43.66105" lon="6.2302">
        <ele>816.8</ele>
        <time>2012-05-04T07:38:06Z</time>
      </trkpt>
      <trkpt lat="43.66108" lon="6.23031">
        <ele>818</ele>
        <time>2012-05-04T07:38:21Z</time>
      </trkpt>
      <trkpt lat="43.66111" lon="6.23043">
        <ele>819.9</ele>
        <time>2012-05-04T07:38:32Z</time>
      </trkpt>
      <trkpt lat="43.66111" lon="6.23044">
        <ele>820</ele>
        <time>2012-05-04T07:38:33Z</time>
      </trkpt>
      <trkpt lat="43.66112" lon="6.23066">
        <ele>822.6</ele>
        <time>2012-05-04T07:38:55Z</time>
      </trkpt>
      <trkpt lat="43.66113" lon="6.23079">
        <ele>823.9</ele>
        <time>2012-05-04T07:39:07Z</time>
      </trkpt>
      <trkpt lat="43.66112" lon="6.23091">
        <ele>825.7</ele>
        <time>2012-05-04T07:39:21Z</time>
      </trkpt>
      <trkpt lat="43.66113" lon="6.23102">
        <ele>826.7</ele>
        <time>2012-05-04T07:39:30Z</time>
      </trkpt>
      <trkpt lat="43.66112" lon="6.23115">
        <ele>827.8</ele>
        <time>2012-05-04T07:39:40Z</time>
      </trkpt>
      <trkpt lat="43.66112" lon="6.23116">
        <ele>828.3</ele>
        <time>2012-05-04T07:39:41Z</time>
      </trkpt>
      <trkpt lat="43.66116" lon="6.23137">
        <ele>828.8</ele>
        <time>2012-05-04T07:40:03Z</time>
      </trkpt>
      <trkpt lat="43.6612" lon="6.23148">
        <ele>829.4</ele>
        <time>2012-05-04T07:40:13Z</time>
      </trkpt>
      <trkpt lat="43.66122" lon="6.2316">
        <ele>830.2</ele>
        <time>2012-05-04T07:40:20Z</time>
      </trkpt>
      <trkpt lat="43.66123" lon="6.23171">
        <ele>830.6</ele>
        <time>2012-05-04T07:40:29Z</time>
      </trkpt>
      <trkpt lat="43.66122" lon="6.23183">
        <ele>830.5</ele>
        <time>2012-05-04T07:40:39Z</time>
      </trkpt>
      <trkpt lat="43.66117" lon="6.23192">
        <ele>831.9</ele>
        <time>2012-05-04T07:40:48Z</time>
      </trkpt>
      <trkpt lat="43.66115" lon="6.23192">
        <ele>831.2</ele>
        <time>2012-05-04T07:40:49Z</time>
      </trkpt>
      <trkpt lat="43.66103" lon="6.23206">
        <ele>832.8</ele>
        <time>2012-05-04T07:41:04Z</time>
      </trkpt>
      <trkpt lat="43.66103" lon="6.23219">
        <ele>832.3</ele>
        <time>2012-05-04T07:41:16Z</time>
      </trkpt>
      <trkpt lat="43.66098" lon="6.23228">
        <ele>833</ele>
        <time>2012-05-04T07:41:30Z</time>
      </trkpt>
      <trkpt lat="43.66093" lon="6.23239">
        <ele>834.6</ele>
        <time>2012-05-04T07:41:40Z</time>
      </trkpt>
      <trkpt lat="43.66089" lon="6.23249">
        <ele>834.4</ele>
        <time>2012-05-04T07:41:48Z</time>
      </trkpt>
      <trkpt lat="43.66084" lon="6.23259">
        <ele>835.1</ele>
        <time>2012-05-04T07:41:57Z</time>
      </trkpt>
      <trkpt lat="43.66084" lon="6.2326">
        <ele>834.9</ele>
        <time>2012-05-04T07:41:58Z</time>
      </trkpt>
      <trkpt lat="43.6608" lon="6.23282">
        <ele>836.3</ele>
        <time>2012-05-04T07:42:15Z</time>
      </trkpt>
      <trkpt lat="43.66077" lon="6.23293">
        <ele>838.2</ele>
        <time>2012-05-04T07:42:26Z</time>
      </trkpt>
      <trkpt lat="43.66076" lon="6.23305">
        <ele>837.8</ele>
        <time>2012-05-04T07:42:41Z</time>
      </trkpt>
      <trkpt lat="43.66079" lon="6.23317">
        <ele>839.8</ele>
        <time>2012-05-04T07:42:51Z</time>
      </trkpt>
      <trkpt lat="43.66079" lon="6.23329">
        <ele>841</ele>
        <time>2012-05-04T07:43:03Z</time>
      </trkpt>
      <trkpt lat="43.66079" lon="6.2333">
        <ele>841.2</ele>
        <time>2012-05-04T07:43:04Z</time>
      </trkpt>
      <trkpt lat="43.66082" lon="6.23353">
        <ele>844.9</ele>
        <time>2012-05-04T07:43:36Z</time>
      </trkpt>
      <trkpt lat="43.66077" lon="6.23362">
        <ele>846.9</ele>
        <time>2012-05-04T07:43:50Z</time>
      </trkpt>
      <trkpt lat="43.66071" lon="6.23372">
        <ele>847.5</ele>
        <time>2012-05-04T07:44:04Z</time>
      </trkpt>
      <trkpt lat="43.66071" lon="6.23372">
        <ele>847.3</ele>
        <time>2012-05-04T07:44:05Z</time>
      </trkpt>
      <trkpt lat="43.66058" lon="6.23387">
        <ele>850.4</ele>
        <time>2012-05-04T07:44:30Z</time>
      </trkpt>
      <trkpt lat="43.66052" lon="6.23397">
        <ele>852.6</ele>
        <time>2012-05-04T07:44:42Z</time>
      </trkpt>
      <trkpt lat="43.66048" lon="6.23407">
        <ele>852.9</ele>
        <time>2012-05-04T07:44:54Z</time>
      </trkpt>
      <trkpt lat="43.66045" lon="6.23418">
        <ele>855.6</ele>
        <time>2012-05-04T07:45:10Z</time>
      </trkpt>
      <trkpt lat="43.66045" lon="6.23419">
        <ele>855.8</ele>
        <time>2012-05-04T07:45:11Z</time>
      </trkpt>
      <trkpt lat="43.66042" lon="6.23442">
        <ele>858</ele>
        <time>2012-05-04T07:45:36Z</time>
      </trkpt>
      <trkpt lat="43.66044" lon="6.23453">
        <ele>859.8</ele>
        <time>2012-05-04T07:45:45Z</time>
      </trkpt>
      <trkpt lat="43.66049" lon="6.23463">
        <ele>860</ele>
        <time>2012-05-04T07:45:55Z</time>
      </trkpt>
      <trkpt lat="43.66052" lon="6.23475">
        <ele>860.9</ele>
        <time>2012-05-04T07:46:08Z</time>
      </trkpt>
      <trkpt lat="43.66054" lon="6.23486">
        <ele>861.2</ele>
        <time>2012-05-04T07:46:18Z</time>
      </trkpt>
      <trkpt lat="43.66054" lon="6.23487">
        <ele>861.1</ele>
        <time>2012-05-04T07:46:19Z</time>
      </trkpt>
      <trkpt lat="43.66052" lon="6.23509">
        <ele>860.9</ele>
        <time>2012-05-04T07:46:37Z</time>
      </trkpt>
      <trkpt lat="43.66048" lon="6.2352">
        <ele>859.8</ele>
        <time>2012-05-04T07:46:47Z</time>
      </trkpt>
      <trkpt lat="43.66046" lon="6.23531">
        <ele>859.9</ele>
        <time>2012-05-04T07:46:56Z</time>
      </trkpt>
      <trkpt lat="43.66043" lon="6.23542">
        <ele>859.1</ele>
        <time>2012-05-04T07:47:04Z</time>
      </trkpt>
      <trkpt lat="43.66037" lon="6.23551">
        <ele>859.6</ele>
        <time>2012-05-04T07:47:13Z</time>
      </trkpt>
      <trkpt lat="43.66031" lon="6.2356">
        <ele>858.7</ele>
        <time>2012-05-04T07:47:23Z</time>
      </trkpt>
      <trkpt lat="43.66031" lon="6.23561">
        <ele>858.6</ele>
        <time>2012-05-04T07:47:24Z</time>
      </trkpt>
      <trkpt lat="43.66044" lon="6.23576">
        <ele>860.7</ele>
        <time>2012-05-04T07:48:25Z</time>
      </trkpt>
      <trkpt lat="43.66045" lon="6.23576">
        <ele>860.4</ele>
        <time>2012-05-04T07:48:26Z</time>
      </trkpt>
      <trkpt lat="43.66043" lon="6.2357">
        <ele>860.7</ele>
        <time>2012-05-04T07:49:35Z</time>
      </trkpt>
      <trkpt lat="43.66043" lon="6.23569">
        <ele>860.6</ele>
        <time>2012-05-04T07:49:36Z</time>
      </trkpt>
      <trkpt lat="43.66031" lon="6.23585">
        <ele>861.4</ele>
        <time>2012-05-04T07:50:34Z</time>
      </trkpt>
      <trkpt lat="43.66027" lon="6.23595">
        <ele>862.1</ele>
        <time>2012-05-04T07:50:47Z</time>
      </trkpt>
      <trkpt lat="43.66026" lon="6.23596">
        <ele>861.8</ele>
        <time>2012-05-04T07:50:48Z</time>
      </trkpt>
      <trkpt lat="43.66021" lon="6.23618">
        <ele>864.4</ele>
        <time>2012-05-04T07:51:13Z</time>
      </trkpt>
      <trkpt lat="43.66017" lon="6.23629">
        <ele>864.8</ele>
        <time>2012-05-04T07:51:27Z</time>
      </trkpt>
      <trkpt lat="43.66013" lon="6.2364">
        <ele>865.5</ele>
        <time>2012-05-04T07:51:41Z</time>
      </trkpt>
      <trkpt lat="43.66008" lon="6.2365">
        <ele>867.6</ele>
        <time>2012-05-04T07:51:56Z</time>
      </trkpt>
      <trkpt lat="43.66007" lon="6.2365">
        <ele>867.8</ele>
        <time>2012-05-04T07:51:57Z</time>
      </trkpt>
      <trkpt lat="43.66002" lon="6.23673">
        <ele>870.5</ele>
        <time>2012-05-04T07:52:27Z</time>
      </trkpt>
      <trkpt lat="43.65999" lon="6.23684">
        <ele>872.4</ele>
        <time>2012-05-04T07:52:47Z</time>
      </trkpt>
      <trkpt lat="43.65992" lon="6.23692">
        <ele>873.1</ele>
        <time>2012-05-04T07:53:05Z</time>
      </trkpt>
      <trkpt lat="43.65992" lon="6.23693">
        <ele>873.2</ele>
        <time>2012-05-04T07:53:06Z</time>
      </trkpt>
      <trkpt lat="43.65979" lon="6.23707">
        <ele>875.6</ele>
        <time>2012-05-04T07:53:41Z</time>
      </trkpt>
      <trkpt lat="43.65972" lon="6.23715">
        <ele>877.9</ele>
        <time>2012-05-04T07:54:05Z</time>
      </trkpt>
      <trkpt lat="43.65966" lon="6.23723">
        <ele>880.1</ele>
        <time>2012-05-04T07:54:21Z</time>
      </trkpt>
      <trkpt lat="43.65965" lon="6.23723">
        <ele>880.2</ele>
        <time>2012-05-04T07:54:22Z</time>
      </trkpt>
      <trkpt lat="43.65959" lon="6.23746">
        <ele>880.6</ele>
        <time>2012-05-04T07:54:51Z</time>
      </trkpt>
      <trkpt lat="43.65952" lon="6.23753">
        <ele>883.6</ele>
        <time>2012-05-04T07:55:10Z</time>
      </trkpt>
      <trkpt lat="43.65944" lon="6.23757">
        <ele>884.7</ele>
        <time>2012-05-04T07:55:47Z</time>
      </trkpt>
      <trkpt lat="43.65943" lon="6.23757">
        <ele>884.9</ele>
        <time>2012-05-04T07:55:48Z</time>
      </trkpt>
      <trkpt lat="43.6593" lon="6.23769">
        <ele>887.7</ele>
        <time>2012-05-04T07:56:20Z</time>
      </trkpt>
      <trkpt lat="43.65921" lon="6.23773">
        <ele>889.8</ele>
        <time>2012-05-04T07:56:35Z</time>
      </trkpt>
      <trkpt lat="43.65912" lon="6.23774">
        <ele>891.4</ele>
        <time>2012-05-04T07:56:51Z</time>
      </trkpt>
      <trkpt lat="43.65912" lon="6.23774">
        <ele>891.5</ele>
        <time>2012-05-04T07:56:52Z</time>
      </trkpt>
      <trkpt lat="43.65897" lon="6.23786">
        <ele>895.4</ele>
        <time>2012-05-04T07:57:28Z</time>
      </trkpt>
      <trkpt lat="43.65889" lon="6.23789">
        <ele>896.3</ele>
        <time>2012-05-04T07:57:46Z</time>
      </trkpt>
      <trkpt lat="43.6588" lon="6.23792">
        <ele>897.7</ele>
        <time>2012-05-04T07:58:00Z</time>
      </trkpt>
      <trkpt lat="43.65879" lon="6.23792">
        <ele>898.1</ele>
        <time>2012-05-04T07:58:01Z</time>
      </trkpt>
      <trkpt lat="43.65866" lon="6.23807">
        <ele>900.4</ele>
        <time>2012-05-04T07:58:28Z</time>
      </trkpt>
      <trkpt lat="43.65862" lon="6.23817">
        <ele>902</ele>
        <time>2012-05-04T07:58:49Z</time>
      </trkpt>
      <trkpt lat="43.65855" lon="6.23825">
        <ele>903.7</ele>
        <time>2012-05-04T07:59:13Z</time>
      </trkpt>
      <trkpt lat="43.65855" lon="6.23826">
        <ele>903.8</ele>
        <time>2012-05-04T07:59:14Z</time>
      </trkpt>
      <trkpt lat="43.65841" lon="6.23839">
        <ele>905.8</ele>
        <time>2012-05-04T07:59:35Z</time>
      </trkpt>
      <trkpt lat="43.65837" lon="6.23849">
        <ele>906.1</ele>
        <time>2012-05-04T07:59:47Z</time>
      </trkpt>
      <trkpt lat="43.65831" lon="6.23857">
        <ele>908.4</ele>
        <time>2012-05-04T08:00:11Z</time>
      </trkpt>
      <trkpt lat="43.65824" lon="6.23865">
        <ele>908.4</ele>
        <time>2012-05-04T08:00:27Z</time>
      </trkpt>
      <trkpt lat="43.65824" lon="6.23866">
        <ele>908.5</ele>
        <time>2012-05-04T08:00:28Z</time>
      </trkpt>
      <trkpt lat="43.65813" lon="6.23882">
        <ele>911.3</ele>
        <time>2012-05-04T08:01:08Z</time>
      </trkpt>
      <trkpt lat="43.65808" lon="6.23893">
        <ele>913</ele>
        <time>2012-05-04T08:01:39Z</time>
      </trkpt>
      <trkpt lat="43.65808" lon="6.23893">
        <ele>913.1</ele>
        <time>2012-05-04T08:01:40Z</time>
      </trkpt>
      <trkpt lat="43.65796" lon="6.2391">
        <ele>913.6</ele>
        <time>2012-05-04T08:02:52Z</time>
      </trkpt>
      <trkpt lat="43.65795" lon="6.2391">
        <ele>913.6</ele>
        <time>2012-05-04T08:02:53Z</time>
      </trkpt>
      <trkpt lat="43.65788" lon="6.23929">
        <ele>913.5</ele>
        <time>2012-05-04T08:03:12Z</time>
      </trkpt>
      <trkpt lat="43.65783" lon="6.23939">
        <ele>912.7</ele>
        <time>2012-05-04T08:03:27Z</time>
      </trkpt>
      <trkpt lat="43.65777" lon="6.23948">
        <ele>912.9</ele>
        <time>2012-05-04T08:03:42Z</time>
      </trkpt>
      <trkpt lat="43.65773" lon="6.23958">
        <ele>912.3</ele>
        <time>2012-05-04T08:03:51Z</time>
      </trkpt>
      <trkpt lat="43.65769" lon="6.23968">
        <ele>912.9</ele>
        <time>2012-05-04T08:04:04Z</time>
      </trkpt>
      <trkpt lat="43.65768" lon="6.23969">
        <ele>913.1</ele>
        <time>2012-05-04T08:04:05Z</time>
      </trkpt>
      <trkpt lat="43.65757" lon="6.23984">
        <ele>914.6</ele>
        <time>2012-05-04T08:04:42Z</time>
      </trkpt>
      <trkpt lat="43.65758" lon="6.23996">
        <ele>913.3</ele>
        <time>2012-05-04T08:05:09Z</time>
      </trkpt>
      <trkpt lat="43.65758" lon="6.23997">
        <ele>913</ele>
        <time>2012-05-04T08:05:10Z</time>
      </trkpt>
      <trkpt lat="43.65749" lon="6.24017">
        <ele>912.5</ele>
        <time>2012-05-04T08:06:17Z</time>
      </trkpt>
      <trkpt lat="43.65748" lon="6.24017">
        <ele>912.4</ele>
        <time>2012-05-04T08:06:18Z</time>
      </trkpt>
      <trkpt lat="43.65745" lon="6.24039">
        <ele>911.6</ele>
        <time>2012-05-04T08:06:55Z</time>
      </trkpt>
      <trkpt lat="43.65741" lon="6.2405">
        <ele>911.5</ele>
        <time>2012-05-04T08:07:04Z</time>
      </trkpt>
      <trkpt lat="43.65739" lon="6.24061">
        <ele>911.2</ele>
        <time>2012-05-04T08:07:15Z</time>
      </trkpt>
      <trkpt lat="43.65736" lon="6.24073">
        <ele>911.1</ele>
        <time>2012-05-04T08:07:23Z</time>
      </trkpt>
      <trkpt lat="43.65735" lon="6.24074">
        <ele>911</ele>
        <time>2012-05-04T08:07:24Z</time>
      </trkpt>
      <trkpt lat="43.65721" lon="6.24084">
        <ele>910.2</ele>
        <time>2012-05-04T08:07:40Z</time>
      </trkpt>
      <trkpt lat="43.65715" lon="6.24093">
        <ele>911.7</ele>
        <time>2012-05-04T08:07:57Z</time>
      </trkpt>
      <trkpt lat="43.65706" lon="6.24096">
        <ele>913.3</ele>
        <time>2012-05-04T08:08:12Z</time>
      </trkpt>
      <trkpt lat="43.65699" lon="6.24103">
        <ele>914.9</ele>
        <time>2012-05-04T08:08:37Z</time>
      </trkpt>
      <trkpt lat="43.65699" lon="6.24103">
        <ele>915</ele>
        <time>2012-05-04T08:08:38Z</time>
      </trkpt>
      <trkpt lat="43.65686" lon="6.24118">
        <ele>918.9</ele>
        <time>2012-05-04T08:09:11Z</time>
      </trkpt>
      <trkpt lat="43.65679" lon="6.24124">
        <ele>920.7</ele>
        <time>2012-05-04T08:09:26Z</time>
      </trkpt>
      <trkpt lat="43.65673" lon="6.24133">
        <ele>922.7</ele>
        <time>2012-05-04T08:09:41Z</time>
      </trkpt>
      <trkpt lat="43.65672" lon="6.24134">
        <ele>922.7</ele>
        <time>2012-05-04T08:09:42Z</time>
      </trkpt>
      <trkpt lat="43.65658" lon="6.24144">
        <ele>925.3</ele>
        <time>2012-05-04T08:10:09Z</time>
      </trkpt>
      <trkpt lat="43.65651" lon="6.24152">
        <ele>926.2</ele>
        <time>2012-05-04T08:10:20Z</time>
      </trkpt>
      <trkpt lat="43.65645" lon="6.2416">
        <ele>927.7</ele>
        <time>2012-05-04T08:10:35Z</time>
      </trkpt>
      <trkpt lat="43.65638" lon="6.24168">
        <ele>929.1</ele>
        <time>2012-05-04T08:10:47Z</time>
      </trkpt>
      <trkpt lat="43.65638" lon="6.24168">
        <ele>929.1</ele>
        <time>2012-05-04T08:10:48Z</time>
      </trkpt>
      <trkpt lat="43.65628" lon="6.24187">
        <ele>931</ele>
        <time>2012-05-04T08:12:30Z</time>
      </trkpt>
      <trkpt lat="43.65628" lon="6.24187">
        <ele>930.8</ele>
        <time>2012-05-04T08:12:31Z</time>
      </trkpt>
      <trkpt lat="43.65619" lon="6.24193">
        <ele>930.7</ele>
        <time>2012-05-04T08:18:29Z</time>
      </trkpt>
      <trkpt lat="43.65614" lon="6.24214">
        <ele>933.8</ele>
        <time>2012-05-04T08:18:56Z</time>
      </trkpt>
      <trkpt lat="43.6561" lon="6.24225">
        <ele>933.6</ele>
        <time>2012-05-04T08:19:18Z</time>
      </trkpt>
      <trkpt lat="43.65608" lon="6.24236">
        <ele>932.8</ele>
        <time>2012-05-04T08:19:36Z</time>
      </trkpt>
      <trkpt lat="43.65608" lon="6.24237">
        <ele>932.7</ele>
        <time>2012-05-04T08:19:37Z</time>
      </trkpt>
      <trkpt lat="43.65605" lon="6.24258">
        <ele>932.9</ele>
        <time>2012-05-04T08:19:56Z</time>
      </trkpt>
      <trkpt lat="43.65605" lon="6.2427">
        <ele>934</ele>
        <time>2012-05-04T08:20:06Z</time>
      </trkpt>
      <trkpt lat="43.65602" lon="6.24281">
        <ele>934.5</ele>
        <time>2012-05-04T08:20:23Z</time>
      </trkpt>
      <trkpt lat="43.65601" lon="6.24293">
        <ele>934.4</ele>
        <time>2012-05-04T08:20:35Z</time>
      </trkpt>
      <trkpt lat="43.65601" lon="6.24306">
        <ele>934.4</ele>
        <time>2012-05-04T08:20:48Z</time>
      </trkpt>
      <trkpt lat="43.65601" lon="6.24307">
        <ele>934.1</ele>
        <time>2012-05-04T08:20:49Z</time>
      </trkpt>
      <trkpt lat="43.65603" lon="6.24328">
        <ele>932.7</ele>
        <time>2012-05-04T08:21:06Z</time>
      </trkpt>
      <trkpt lat="43.65606" lon="6.24339">
        <ele>932.4</ele>
        <time>2012-05-04T08:21:15Z</time>
      </trkpt>
      <trkpt lat="43.65607" lon="6.24351">
        <ele>932.7</ele>
        <time>2012-05-04T08:21:26Z</time>
      </trkpt>
      <trkpt lat="43.65606" lon="6.24362">
        <ele>933.5</ele>
        <time>2012-05-04T08:21:39Z</time>
      </trkpt>
      <trkpt lat="43.65606" lon="6.24375">
        <ele>934.1</ele>
        <time>2012-05-04T08:21:52Z</time>
      </trkpt>
      <trkpt lat="43.65606" lon="6.24375">
        <ele>933.9</ele>
        <time>2012-05-04T08:21:53Z</time>
      </trkpt>
      <trkpt lat="43.65609" lon="6.24398">
        <ele>932.6</ele>
        <time>2012-05-04T08:22:17Z</time>
      </trkpt>
      <trkpt lat="43.65614" lon="6.24407">
        <ele>932.4</ele>
        <time>2012-05-04T08:22:26Z</time>
      </trkpt>
      <trkpt lat="43.65617" lon="6.24418">
        <ele>930.9</ele>
        <time>2012-05-04T08:22:36Z</time>
      </trkpt>
      <trkpt lat="43.65618" lon="6.24429">
        <ele>930.8</ele>
        <time>2012-05-04T08:22:47Z</time>
      </trkpt>
      <trkpt lat="43.6562" lon="6.24441">
        <ele>929.1</ele>
        <time>2012-05-04T08:22:57Z</time>
      </trkpt>
      <trkpt lat="43.6562" lon="6.24443">
        <ele>929.3</ele>
        <time>2012-05-04T08:22:58Z</time>
      </trkpt>
      <trkpt lat="43.6562" lon="6.24466">
        <ele>928.3</ele>
        <time>2012-05-04T08:23:21Z</time>
      </trkpt>
      <trkpt lat="43.65621" lon="6.24478">
        <ele>927.8</ele>
        <time>2012-05-04T08:23:31Z</time>
      </trkpt>
      <trkpt lat="43.6562" lon="6.2449">
        <ele>927.2</ele>
        <time>2012-05-04T08:23:49Z</time>
      </trkpt>
      <trkpt lat="43.65618" lon="6.24501">
        <ele>926.9</ele>
        <time>2012-05-04T08:24:00Z</time>
      </trkpt>
      <trkpt lat="43.65618" lon="6.24503">
        <ele>927.2</ele>
        <time>2012-05-04T08:24:01Z</time>
      </trkpt>
      <trkpt lat="43.65617" lon="6.24525">
        <ele>927.5</ele>
        <time>2012-05-04T08:24:27Z</time>
      </trkpt>
      <trkpt lat="43.65615" lon="6.24536">
        <ele>928.6</ele>
        <time>2012-05-04T08:24:47Z</time>
      </trkpt>
      <trkpt lat="43.65613" lon="6.24548">
        <ele>929.9</ele>
        <time>2012-05-04T08:25:03Z</time>
      </trkpt>
      <trkpt lat="43.65613" lon="6.24549">
        <ele>929.7</ele>
        <time>2012-05-04T08:25:04Z</time>
      </trkpt>
      <trkpt lat="43.65607" lon="6.24568">
        <ele>929.7</ele>
        <time>2012-05-04T08:25:47Z</time>
      </trkpt>
      <trkpt lat="43.65606" lon="6.2458">
        <ele>930</ele>
        <time>2012-05-04T08:26:03Z</time>
      </trkpt>
      <trkpt lat="43.65599" lon="6.24588">
        <ele>929.3</ele>
        <time>2012-05-04T08:26:39Z</time>
      </trkpt>
      <trkpt lat="43.65598" lon="6.24588">
        <ele>929.6</ele>
        <time>2012-05-04T08:26:40Z</time>
      </trkpt>
      <trkpt lat="43.65586" lon="6.24603">
        <ele>930</ele>
        <time>2012-05-04T08:27:01Z</time>
      </trkpt>
      <trkpt lat="43.65581" lon="6.24612">
        <ele>931.4</ele>
        <time>2012-05-04T08:27:13Z</time>
      </trkpt>
      <trkpt lat="43.65576" lon="6.24623">
        <ele>931.9</ele>
        <time>2012-05-04T08:27:30Z</time>
      </trkpt>
      <trkpt lat="43.65572" lon="6.24633">
        <ele>932.3</ele>
        <time>2012-05-04T08:27:41Z</time>
      </trkpt>
      <trkpt lat="43.65571" lon="6.24634">
        <ele>932.3</ele>
        <time>2012-05-04T08:27:42Z</time>
      </trkpt>
      <trkpt lat="43.6556" lon="6.2465">
        <ele>934.3</ele>
        <time>2012-05-04T08:28:11Z</time>
      </trkpt>
      <trkpt lat="43.65553" lon="6.24657">
        <ele>935.5</ele>
        <time>2012-05-04T08:28:26Z</time>
      </trkpt>
      <trkpt lat="43.65548" lon="6.24667">
        <ele>937.8</ele>
        <time>2012-05-04T08:28:44Z</time>
      </trkpt>
      <trkpt lat="43.65547" lon="6.24667">
        <ele>938</ele>
        <time>2012-05-04T08:28:45Z</time>
      </trkpt>
      <trkpt lat="43.65533" lon="6.24678">
        <ele>941.2</ele>
        <time>2012-05-04T08:29:13Z</time>
      </trkpt>
      <trkpt lat="43.65526" lon="6.24686">
        <ele>941.5</ele>
        <time>2012-05-04T08:29:27Z</time>
      </trkpt>
      <trkpt lat="43.65519" lon="6.24693">
        <ele>944.3</ele>
        <time>2012-05-04T08:29:47Z</time>
      </trkpt>
      <trkpt lat="43.65518" lon="6.24693">
        <ele>944.2</ele>
        <time>2012-05-04T08:29:48Z</time>
      </trkpt>
      <trkpt lat="43.65506" lon="6.24709">
        <ele>949.2</ele>
        <time>2012-05-04T08:30:23Z</time>
      </trkpt>
      <trkpt lat="43.65503" lon="6.2472">
        <ele>950</ele>
        <time>2012-05-04T08:30:36Z</time>
      </trkpt>
      <trkpt lat="43.65499" lon="6.2473">
        <ele>951.6</ele>
        <time>2012-05-04T08:31:21Z</time>
      </trkpt>
      <trkpt lat="43.65499" lon="6.24731">
        <ele>951.6</ele>
        <time>2012-05-04T08:31:22Z</time>
      </trkpt>
      <trkpt lat="43.65488" lon="6.24748">
        <ele>952.7</ele>
        <time>2012-05-04T08:31:49Z</time>
      </trkpt>
      <trkpt lat="43.65483" lon="6.24758">
        <ele>952.4</ele>
        <time>2012-05-04T08:32:04Z</time>
      </trkpt>
      <trkpt lat="43.6548" lon="6.24769">
        <ele>951.7</ele>
        <time>2012-05-04T08:32:23Z</time>
      </trkpt>
      <trkpt lat="43.6548" lon="6.2477">
        <ele>951.5</ele>
        <time>2012-05-04T08:32:24Z</time>
      </trkpt>
      <trkpt lat="43.6547" lon="6.24787">
        <ele>948.8</ele>
        <time>2012-05-04T08:32:57Z</time>
      </trkpt>
      <trkpt lat="43.65464" lon="6.24796">
        <ele>948.6</ele>
        <time>2012-05-04T08:33:37Z</time>
      </trkpt>
      <trkpt lat="43.65463" lon="6.24797">
        <ele>948.4</ele>
        <time>2012-05-04T08:33:38Z</time>
      </trkpt>
      <trkpt lat="43.6545" lon="6.24811">
        <ele>951.7</ele>
        <time>2012-05-04T08:34:15Z</time>
      </trkpt>
      <trkpt lat="43.65444" lon="6.24819">
        <ele>952</ele>
        <time>2012-05-04T08:34:52Z</time>
      </trkpt>
      <trkpt lat="43.65443" lon="6.24819">
        <ele>951.9</ele>
        <time>2012-05-04T08:34:53Z</time>
      </trkpt>
      <trkpt lat="43.65434" lon="6.24839">
        <ele>953.2</ele>
        <time>2012-05-04T08:36:02Z</time>
      </trkpt>
      <trkpt lat="43.65434" lon="6.2484">
        <ele>953.2</ele>
        <time>2012-05-04T08:36:03Z</time>
      </trkpt>
      <trkpt lat="43.65432" lon="6.24861">
        <ele>952.9</ele>
        <time>2012-05-04T08:36:26Z</time>
      </trkpt>
      <trkpt lat="43.65426" lon="6.24869">
        <ele>956.1</ele>
        <time>2012-05-04T08:37:03Z</time>
      </trkpt>
      <trkpt lat="43.65426" lon="6.24869">
        <ele>956.4</ele>
        <time>2012-05-04T08:37:04Z</time>
      </trkpt>
      <trkpt lat="43.65422" lon="6.24881">
        <ele>958.5</ele>
        <time>2012-05-04T08:38:16Z</time>
      </trkpt>
      <trkpt lat="43.65411" lon="6.24898">
        <ele>964.2</ele>
        <time>2012-05-04T08:39:39Z</time>
      </trkpt>
      <trkpt lat="43.65411" lon="6.24899">
        <ele>963.9</ele>
        <time>2012-05-04T08:39:40Z</time>
      </trkpt>
      <trkpt lat="43.65402" lon="6.24896">
        <ele>967.7</ele>
        <time>2012-05-04T08:40:54Z</time>
      </trkpt>
      <trkpt lat="43.654" lon="6.24908">
        <ele>976</ele>
        <time>2012-05-04T08:42:08Z</time>
      </trkpt>
      <trkpt lat="43.65392" lon="6.24915">
        <ele>979.3</ele>
        <time>2012-05-04T08:43:51Z</time>
      </trkpt>
      <trkpt lat="43.65375" lon="6.24918">
        <ele>990.2</ele>
        <time>2012-05-04T08:46:06Z</time>
      </trkpt>
      <trkpt lat="43.65375" lon="6.24917">
        <ele>990.1</ele>
        <time>2012-05-04T08:46:07Z</time>
      </trkpt>
      <trkpt lat="43.6537" lon="6.24928">
        <ele>992.5</ele>
        <time>2012-05-04T08:47:38Z</time>
      </trkpt>
      <trkpt lat="43.65361" lon="6.24948">
        <ele>996.9</ele>
        <time>2012-05-04T08:48:39Z</time>
      </trkpt>
      <trkpt lat="43.65361" lon="6.24949">
        <ele>997</ele>
        <time>2012-05-04T08:48:40Z</time>
      </trkpt>
      <trkpt lat="43.65354" lon="6.24957">
        <ele>997.2</ele>
        <time>2012-05-04T08:49:56Z</time>
      </trkpt>
      <trkpt lat="43.65348" lon="6.24966">
        <ele>997.4</ele>
        <time>2012-05-04T08:51:09Z</time>
      </trkpt>
      <trkpt lat="43.65355" lon="6.24976">
        <ele>993.5</ele>
        <time>2012-05-04T08:56:36Z</time>
      </trkpt>
      <trkpt lat="43.65359" lon="6.24997">
        <ele>992.5</ele>
        <time>2012-05-04T08:56:53Z</time>
      </trkpt>
      <trkpt lat="43.6536" lon="6.25009">
        <ele>992.3</ele>
        <time>2012-05-04T08:57:03Z</time>
      </trkpt>
      <trkpt lat="43.65363" lon="6.2502">
        <ele>989.9</ele>
        <time>2012-05-04T08:57:13Z</time>
      </trkpt>
      <trkpt lat="43.65368" lon="6.25029">
        <ele>988.7</ele>
        <time>2012-05-04T08:57:22Z</time>
      </trkpt>
      <trkpt lat="43.6537" lon="6.2504">
        <ele>987.6</ele>
        <time>2012-05-04T08:57:30Z</time>
      </trkpt>
      <trkpt lat="43.65364" lon="6.25049">
        <ele>986.6</ele>
        <time>2012-05-04T08:57:37Z</time>
      </trkpt>
      <trkpt lat="43.65363" lon="6.25051">
        <ele>986.6</ele>
        <time>2012-05-04T08:57:38Z</time>
      </trkpt>
      <trkpt lat="43.65362" lon="6.25072">
        <ele>984.5</ele>
        <time>2012-05-04T08:57:53Z</time>
      </trkpt>
      <trkpt lat="43.65362" lon="6.25083">
        <ele>983.6</ele>
        <time>2012-05-04T08:57:59Z</time>
      </trkpt>
      <trkpt lat="43.65365" lon="6.25094">
        <ele>984.4</ele>
        <time>2012-05-04T08:58:05Z</time>
      </trkpt>
      <trkpt lat="43.65365" lon="6.25106">
        <ele>984</ele>
        <time>2012-05-04T08:58:13Z</time>
      </trkpt>
      <trkpt lat="43.65369" lon="6.25116">
        <ele>983.9</ele>
        <time>2012-05-04T08:58:22Z</time>
      </trkpt>
      <trkpt lat="43.6537" lon="6.25129">
        <ele>982.6</ele>
        <time>2012-05-04T08:58:31Z</time>
      </trkpt>
      <trkpt lat="43.65374" lon="6.25139">
        <ele>981</ele>
        <time>2012-05-04T08:58:39Z</time>
      </trkpt>
      <trkpt lat="43.65374" lon="6.2514">
        <ele>980.9</ele>
        <time>2012-05-04T08:58:40Z</time>
      </trkpt>
      <trkpt lat="43.65379" lon="6.25161">
        <ele>980.3</ele>
        <time>2012-05-04T08:58:53Z</time>
      </trkpt>
      <trkpt lat="43.65378" lon="6.25172">
        <ele>979.9</ele>
        <time>2012-05-04T08:58:59Z</time>
      </trkpt>
      <trkpt lat="43.65372" lon="6.25181">
        <ele>979.9</ele>
        <time>2012-05-04T08:59:07Z</time>
      </trkpt>
      <trkpt lat="43.65366" lon="6.25189">
        <ele>980.2</ele>
        <time>2012-05-04T08:59:14Z</time>
      </trkpt>
      <trkpt lat="43.65361" lon="6.25198">
        <ele>979.3</ele>
        <time>2012-05-04T08:59:24Z</time>
      </trkpt>
      <trkpt lat="43.65358" lon="6.25209">
        <ele>977.8</ele>
        <time>2012-05-04T08:59:32Z</time>
      </trkpt>
      <trkpt lat="43.65356" lon="6.25221">
        <ele>977.6</ele>
        <time>2012-05-04T08:59:43Z</time>
      </trkpt>
      <trkpt lat="43.65356" lon="6.25221">
        <ele>977.4</ele>
        <time>2012-05-04T08:59:44Z</time>
      </trkpt>
      <trkpt lat="43.65349" lon="6.25242">
        <ele>976.5</ele>
        <time>2012-05-04T09:00:13Z</time>
      </trkpt>
      <trkpt lat="43.65348" lon="6.25254">
        <ele>975.3</ele>
        <time>2012-05-04T09:00:29Z</time>
      </trkpt>
      <trkpt lat="43.65343" lon="6.25264">
        <ele>972.3</ele>
        <time>2012-05-04T09:01:18Z</time>
      </trkpt>
      <trkpt lat="43.65343" lon="6.25265">
        <ele>972.2</ele>
        <time>2012-05-04T09:01:19Z</time>
      </trkpt>
      <trkpt lat="43.65338" lon="6.25287">
        <ele>968.1</ele>
        <time>2012-05-04T09:02:01Z</time>
      </trkpt>
      <trkpt lat="43.65334" lon="6.25297">
        <ele>967.7</ele>
        <time>2012-05-04T09:02:13Z</time>
      </trkpt>
      <trkpt lat="43.65331" lon="6.25308">
        <ele>965.3</ele>
        <time>2012-05-04T09:02:28Z</time>
      </trkpt>
      <trkpt lat="43.6533" lon="6.25309">
        <ele>965.5</ele>
        <time>2012-05-04T09:02:29Z</time>
      </trkpt>
      <trkpt lat="43.65321" lon="6.25329">
        <ele>962.9</ele>
        <time>2012-05-04T09:02:58Z</time>
      </trkpt>
      <trkpt lat="43.6532" lon="6.25341">
        <ele>962.5</ele>
        <time>2012-05-04T09:03:06Z</time>
      </trkpt>
      <trkpt lat="43.65321" lon="6.25353">
        <ele>960.8</ele>
        <time>2012-05-04T09:03:23Z</time>
      </trkpt>
      <trkpt lat="43.6532" lon="6.25365">
        <ele>959.5</ele>
        <time>2012-05-04T09:03:37Z</time>
      </trkpt>
      <trkpt lat="43.6532" lon="6.25366">
        <ele>959.5</ele>
        <time>2012-05-04T09:03:38Z</time>
      </trkpt>
      <trkpt lat="43.65318" lon="6.25388">
        <ele>958.4</ele>
        <time>2012-05-04T09:03:56Z</time>
      </trkpt>
      <trkpt lat="43.65317" lon="6.254">
        <ele>957.9</ele>
        <time>2012-05-04T09:04:09Z</time>
      </trkpt>
      <trkpt lat="43.65318" lon="6.25412">
        <ele>957.6</ele>
        <time>2012-05-04T09:04:24Z</time>
      </trkpt>
      <trkpt lat="43.65318" lon="6.25423">
        <ele>956.9</ele>
        <time>2012-05-04T09:04:38Z</time>
      </trkpt>
      <trkpt lat="43.65318" lon="6.25425">
        <ele>957.1</ele>
        <time>2012-05-04T09:04:39Z</time>
      </trkpt>
      <trkpt lat="43.65315" lon="6.25444">
        <ele>956.2</ele>
        <time>2012-05-04T09:04:57Z</time>
      </trkpt>
      <trkpt lat="43.6531" lon="6.25434">
        <ele>958.2</ele>
        <time>2012-05-04T09:05:21Z</time>
      </trkpt>
      <trkpt lat="43.65303" lon="6.25429">
        <ele>957.8</ele>
        <time>2012-05-04T09:05:27Z</time>
      </trkpt>
      <trkpt lat="43.65294" lon="6.25427">
        <ele>957.1</ele>
        <time>2012-05-04T09:05:39Z</time>
      </trkpt>
      <trkpt lat="43.65293" lon="6.25427">
        <ele>956.9</ele>
        <time>2012-05-04T09:05:40Z</time>
      </trkpt>
      <trkpt lat="43.65281" lon="6.25442">
        <ele>955.8</ele>
        <time>2012-05-04T09:06:40Z</time>
      </trkpt>
      <trkpt lat="43.65281" lon="6.25442">
        <ele>955.6</ele>
        <time>2012-05-04T09:06:41Z</time>
      </trkpt>
      <trkpt lat="43.65267" lon="6.25458">
        <ele>955.2</ele>
        <time>2012-05-04T09:07:21Z</time>
      </trkpt>
      <trkpt lat="43.65262" lon="6.25467">
        <ele>956.4</ele>
        <time>2012-05-04T09:07:39Z</time>
      </trkpt>
      <trkpt lat="43.65256" lon="6.25476">
        <ele>955.6</ele>
        <time>2012-05-04T09:07:53Z</time>
      </trkpt>
      <trkpt lat="43.65255" lon="6.25476">
        <ele>956.4</ele>
        <time>2012-05-04T09:07:54Z</time>
      </trkpt>
      <trkpt lat="43.65241" lon="6.25489">
        <ele>955.8</ele>
        <time>2012-05-04T09:08:24Z</time>
      </trkpt>
      <trkpt lat="43.65234" lon="6.25495">
        <ele>956</ele>
        <time>2012-05-04T09:08:32Z</time>
      </trkpt>
      <trkpt lat="43.65228" lon="6.25503">
        <ele>956</ele>
        <time>2012-05-04T09:08:39Z</time>
      </trkpt>
      <trkpt lat="43.65223" lon="6.25512">
        <ele>957.7</ele>
        <time>2012-05-04T09:08:48Z</time>
      </trkpt>
      <trkpt lat="43.65219" lon="6.25522">
        <ele>958.2</ele>
        <time>2012-05-04T09:08:59Z</time>
      </trkpt>
      <trkpt lat="43.65219" lon="6.25524">
        <ele>958.1</ele>
        <time>2012-05-04T09:09:00Z</time>
      </trkpt>
      <trkpt lat="43.65208" lon="6.25541">
        <ele>958.3</ele>
        <time>2012-05-04T09:09:33Z</time>
      </trkpt>
      <trkpt lat="43.65204" lon="6.25552">
        <ele>959.6</ele>
        <time>2012-05-04T09:09:47Z</time>
      </trkpt>
      <trkpt lat="43.65196" lon="6.25557">
        <ele>961.1</ele>
        <time>2012-05-04T09:10:29Z</time>
      </trkpt>
      <trkpt lat="43.65195" lon="6.25558">
        <ele>961.1</ele>
        <time>2012-05-04T09:10:30Z</time>
      </trkpt>
      <trkpt lat="43.6518" lon="6.25565">
        <ele>962.9</ele>
        <time>2012-05-04T09:10:54Z</time>
      </trkpt>
      <trkpt lat="43.65171" lon="6.25565">
        <ele>962.1</ele>
        <time>2012-05-04T09:11:04Z</time>
      </trkpt>
      <trkpt lat="43.65163" lon="6.25567">
        <ele>961.8</ele>
        <time>2012-05-04T09:11:16Z</time>
      </trkpt>
      <trkpt lat="43.65156" lon="6.25574">
        <ele>962.9</ele>
        <time>2012-05-04T09:11:30Z</time>
      </trkpt>
      <trkpt lat="43.65155" lon="6.25575">
        <ele>963.1</ele>
        <time>2012-05-04T09:11:31Z</time>
      </trkpt>
      <trkpt lat="43.6514" lon="6.25584">
        <ele>964.8</ele>
        <time>2012-05-04T09:12:02Z</time>
      </trkpt>
      <trkpt lat="43.65132" lon="6.25591">
        <ele>966.4</ele>
        <time>2012-05-04T09:12:15Z</time>
      </trkpt>
      <trkpt lat="43.65128" lon="6.25601">
        <ele>966.6</ele>
        <time>2012-05-04T09:12:31Z</time>
      </trkpt>
      <trkpt lat="43.65128" lon="6.25602">
        <ele>966.6</ele>
        <time>2012-05-04T09:12:32Z</time>
      </trkpt>
      <trkpt lat="43.65124" lon="6.25621">
        <ele>968</ele>
        <time>2012-05-04T09:12:54Z</time>
      </trkpt>
      <trkpt lat="43.65121" lon="6.25632">
        <ele>968.5</ele>
        <time>2012-05-04T09:13:09Z</time>
      </trkpt>
      <trkpt lat="43.65115" lon="6.2564">
        <ele>970.1</ele>
        <time>2012-05-04T09:13:21Z</time>
      </trkpt>
      <trkpt lat="43.65108" lon="6.25647">
        <ele>971.1</ele>
        <time>2012-05-04T09:13:36Z</time>
      </trkpt>
      <trkpt lat="43.65108" lon="6.25648">
        <ele>971.1</ele>
        <time>2012-05-04T09:13:37Z</time>
      </trkpt>
      <trkpt lat="43.65094" lon="6.2566">
        <ele>972.6</ele>
        <time>2012-05-04T09:14:01Z</time>
      </trkpt>
      <trkpt lat="43.65092" lon="6.25671">
        <ele>973.9</ele>
        <time>2012-05-04T09:14:18Z</time>
      </trkpt>
      <trkpt lat="43.65097" lon="6.25681">
        <ele>975.1</ele>
        <time>2012-05-04T09:14:31Z</time>
      </trkpt>
      <trkpt lat="43.65102" lon="6.2569">
        <ele>975.7</ele>
        <time>2012-05-04T09:14:42Z</time>
      </trkpt>
      <trkpt lat="43.65103" lon="6.25691">
        <ele>975.9</ele>
        <time>2012-05-04T09:14:43Z</time>
      </trkpt>
      <trkpt lat="43.65112" lon="6.2571">
        <ele>976.9</ele>
        <time>2012-05-04T09:15:10Z</time>
      </trkpt>
      <trkpt lat="43.65113" lon="6.25722">
        <ele>976.5</ele>
        <time>2012-05-04T09:15:30Z</time>
      </trkpt>
      <trkpt lat="43.65114" lon="6.25733">
        <ele>975.1</ele>
        <time>2012-05-04T09:15:47Z</time>
      </trkpt>
      <trkpt lat="43.65114" lon="6.25734">
        <ele>975.1</ele>
        <time>2012-05-04T09:15:48Z</time>
      </trkpt>
      <trkpt lat="43.65113" lon="6.25758">
        <ele>973.5</ele>
        <time>2012-05-04T09:16:52Z</time>
      </trkpt>
      <trkpt lat="43.65113" lon="6.25758">
        <ele>973.3</ele>
        <time>2012-05-04T09:16:53Z</time>
      </trkpt>
      <trkpt lat="43.65118" lon="6.25781">
        <ele>970.5</ele>
        <time>2012-05-04T09:17:26Z</time>
      </trkpt>
      <trkpt lat="43.65122" lon="6.25792">
        <ele>969.9</ele>
        <time>2012-05-04T09:17:44Z</time>
      </trkpt>
      <trkpt lat="43.65126" lon="6.25802">
        <ele>968.6</ele>
        <time>2012-05-04T09:18:01Z</time>
      </trkpt>
      <trkpt lat="43.65127" lon="6.25803">
        <ele>968.5</ele>
        <time>2012-05-04T09:18:02Z</time>
      </trkpt>
      <trkpt lat="43.65127" lon="6.25825">
        <ele>969.7</ele>
        <time>2012-05-04T09:19:17Z</time>
      </trkpt>
      <trkpt lat="43.65127" lon="6.25826">
        <ele>969.8</ele>
        <time>2012-05-04T09:19:18Z</time>
      </trkpt>
      <trkpt lat="43.65127" lon="6.25849">
        <ele>972.1</ele>
        <time>2012-05-04T09:19:43Z</time>
      </trkpt>
      <trkpt lat="43.65129" lon="6.2586">
        <ele>972.9</ele>
        <time>2012-05-04T09:20:03Z</time>
      </trkpt>
      <trkpt lat="43.65127" lon="6.25873">
        <ele>975</ele>
        <time>2012-05-04T09:20:39Z</time>
      </trkpt>
      <trkpt lat="43.65127" lon="6.25873">
        <ele>975.3</ele>
        <time>2012-05-04T09:20:40Z</time>
      </trkpt>
      <trkpt lat="43.65122" lon="6.25895">
        <ele>977.4</ele>
        <time>2012-05-04T09:21:11Z</time>
      </trkpt>
      <trkpt lat="43.65119" lon="6.25905">
        <ele>978.8</ele>
        <time>2012-05-04T09:21:22Z</time>
      </trkpt>
      <trkpt lat="43.65119" lon="6.25918">
        <ele>978.1</ele>
        <time>2012-05-04T09:21:33Z</time>
      </trkpt>
      <trkpt lat="43.6512" lon="6.2593">
        <ele>979.4</ele>
        <time>2012-05-04T09:21:47Z</time>
      </trkpt>
      <trkpt lat="43.65119" lon="6.25931">
        <ele>979.3</ele>
        <time>2012-05-04T09:21:48Z</time>
      </trkpt>
      <trkpt lat="43.65112" lon="6.25947">
        <ele>981.9</ele>
        <time>2012-05-04T09:22:13Z</time>
      </trkpt>
      <trkpt lat="43.65107" lon="6.25957">
        <ele>981.7</ele>
        <time>2012-05-04T09:22:27Z</time>
      </trkpt>
      <trkpt lat="43.65103" lon="6.25968">
        <ele>981.7</ele>
        <time>2012-05-04T09:22:40Z</time>
      </trkpt>
      <trkpt lat="43.65103" lon="6.2598">
        <ele>980.8</ele>
        <time>2012-05-04T09:22:51Z</time>
      </trkpt>
      <trkpt lat="43.65102" lon="6.25982">
        <ele>980.8</ele>
        <time>2012-05-04T09:22:52Z</time>
      </trkpt>
      <trkpt lat="43.65097" lon="6.26002">
        <ele>979.7</ele>
        <time>2012-05-04T09:23:11Z</time>
      </trkpt>
      <trkpt lat="43.65097" lon="6.26014">
        <ele>979.2</ele>
        <time>2012-05-04T09:23:22Z</time>
      </trkpt>
      <trkpt lat="43.65098" lon="6.26026">
        <ele>978.5</ele>
        <time>2012-05-04T09:23:33Z</time>
      </trkpt>
      <trkpt lat="43.65096" lon="6.26036">
        <ele>978.2</ele>
        <time>2012-05-04T09:23:40Z</time>
      </trkpt>
      <trkpt lat="43.65095" lon="6.26048">
        <ele>977.4</ele>
        <time>2012-05-04T09:23:49Z</time>
      </trkpt>
      <trkpt lat="43.65091" lon="6.26058">
        <ele>978</ele>
        <time>2012-05-04T09:23:59Z</time>
      </trkpt>
      <trkpt lat="43.65091" lon="6.26059">
        <ele>978.2</ele>
        <time>2012-05-04T09:24:00Z</time>
      </trkpt>
      <trkpt lat="43.65084" lon="6.26081">
        <ele>979.5</ele>
        <time>2012-05-04T09:24:29Z</time>
      </trkpt>
      <trkpt lat="43.65079" lon="6.26091">
        <ele>981.4</ele>
        <time>2012-05-04T09:24:52Z</time>
      </trkpt>
      <trkpt lat="43.65074" lon="6.26101">
        <ele>983.1</ele>
        <time>2012-05-04T09:25:15Z</time>
      </trkpt>
      <trkpt lat="43.65074" lon="6.26101">
        <ele>983.1</ele>
        <time>2012-05-04T09:25:16Z</time>
      </trkpt>
      <trkpt lat="43.65065" lon="6.26121">
        <ele>984.2</ele>
        <time>2012-05-04T09:25:49Z</time>
      </trkpt>
      <trkpt lat="43.65062" lon="6.26132">
        <ele>985.5</ele>
        <time>2012-05-04T09:26:05Z</time>
      </trkpt>
      <trkpt lat="43.65056" lon="6.26141">
        <ele>987.5</ele>
        <time>2012-05-04T09:26:34Z</time>
      </trkpt>
      <trkpt lat="43.65055" lon="6.26141">
        <ele>987.9</ele>
        <time>2012-05-04T09:26:35Z</time>
      </trkpt>
      <trkpt lat="43.65053" lon="6.26162">
        <ele>991.8</ele>
        <time>2012-05-04T09:27:06Z</time>
      </trkpt>
      <trkpt lat="43.65052" lon="6.26174">
        <ele>991.6</ele>
        <time>2012-05-04T09:27:21Z</time>
      </trkpt>
      <trkpt lat="43.65051" lon="6.26186">
        <ele>994.3</ele>
        <time>2012-05-04T09:27:40Z</time>
      </trkpt>
      <trkpt lat="43.65051" lon="6.26187">
        <ele>994.4</ele>
        <time>2012-05-04T09:27:41Z</time>
      </trkpt>
      <trkpt lat="43.65054" lon="6.26209">
        <ele>996.8</ele>
        <time>2012-05-04T09:28:32Z</time>
      </trkpt>
      <trkpt lat="43.6505" lon="6.2622">
        <ele>996.9</ele>
        <time>2012-05-04T09:28:43Z</time>
      </trkpt>
      <trkpt lat="43.6505" lon="6.26221">
        <ele>996.9</ele>
        <time>2012-05-04T09:28:44Z</time>
      </trkpt>
      <trkpt lat="43.65042" lon="6.2624">
        <ele>998.4</ele>
        <time>2012-05-04T09:29:04Z</time>
      </trkpt>
      <trkpt lat="43.6504" lon="6.26251">
        <ele>998.3</ele>
        <time>2012-05-04T09:29:13Z</time>
      </trkpt>
      <trkpt lat="43.65036" lon="6.26262">
        <ele>999.6</ele>
        <time>2012-05-04T09:29:24Z</time>
      </trkpt>
      <trkpt lat="43.65033" lon="6.26273">
        <ele>998</ele>
        <time>2012-05-04T09:29:34Z</time>
      </trkpt>
      <trkpt lat="43.65033" lon="6.26285">
        <ele>998.2</ele>
        <time>2012-05-04T09:29:45Z</time>
      </trkpt>
      <trkpt lat="43.65034" lon="6.26286">
        <ele>998.1</ele>
        <time>2012-05-04T09:29:46Z</time>
      </trkpt>
      <trkpt lat="43.65034" lon="6.26309">
        <ele>998.7</ele>
        <time>2012-05-04T09:30:45Z</time>
      </trkpt>
      <trkpt lat="43.65033" lon="6.2632">
        <ele>998.9</ele>
        <time>2012-05-04T09:30:57Z</time>
      </trkpt>
      <trkpt lat="43.65033" lon="6.26321">
        <ele>999</ele>
        <time>2012-05-04T09:30:58Z</time>
      </trkpt>
      <trkpt lat="43.65028" lon="6.26341">
        <ele>1000.3</ele>
        <time>2012-05-04T09:31:48Z</time>
      </trkpt>
      <trkpt lat="43.65024" lon="6.26352">
        <ele>1001.8</ele>
        <time>2012-05-04T09:32:06Z</time>
      </trkpt>
      <trkpt lat="43.65024" lon="6.26353">
        <ele>1002.2</ele>
        <time>2012-05-04T09:32:07Z</time>
      </trkpt>
      <trkpt lat="43.65023" lon="6.26377">
        <ele>999.7</ele>
        <time>2012-05-04T09:32:56Z</time>
      </trkpt>
      <trkpt lat="43.65021" lon="6.26389">
        <ele>996.6</ele>
        <time>2012-05-04T09:33:28Z</time>
      </trkpt>
      <trkpt lat="43.65021" lon="6.26389">
        <ele>996.5</ele>
        <time>2012-05-04T09:33:29Z</time>
      </trkpt>
      <trkpt lat="43.65017" lon="6.26412">
        <ele>992</ele>
        <time>2012-05-04T09:34:03Z</time>
      </trkpt>
      <trkpt lat="43.65014" lon="6.26424">
        <ele>991.4</ele>
        <time>2012-05-04T09:34:13Z</time>
      </trkpt>
      <trkpt lat="43.65011" lon="6.26435">
        <ele>990.1</ele>
        <time>2012-05-04T09:34:26Z</time>
      </trkpt>
      <trkpt lat="43.65008" lon="6.26446">
        <ele>990.1</ele>
        <time>2012-05-04T09:34:39Z</time>
      </trkpt>
      <trkpt lat="43.65008" lon="6.26447">
        <ele>990.2</ele>
        <time>2012-05-04T09:34:40Z</time>
      </trkpt>
      <trkpt lat="43.65008" lon="6.2647">
        <ele>990.2</ele>
        <time>2012-05-04T09:35:02Z</time>
      </trkpt>
      <trkpt lat="43.65005" lon="6.26481">
        <ele>991.3</ele>
        <time>2012-05-04T09:35:22Z</time>
      </trkpt>
      <trkpt lat="43.65001" lon="6.26493">
        <ele>992.4</ele>
        <time>2012-05-04T09:35:41Z</time>
      </trkpt>
      <trkpt lat="43.65001" lon="6.26493">
        <ele>992.2</ele>
        <time>2012-05-04T09:35:42Z</time>
      </trkpt>
      <trkpt lat="43.64997" lon="6.26516">
        <ele>997.5</ele>
        <time>2012-05-04T09:36:23Z</time>
      </trkpt>
      <trkpt lat="43.64994" lon="6.26527">
        <ele>998.8</ele>
        <time>2012-05-04T09:36:45Z</time>
      </trkpt>
      <trkpt lat="43.64993" lon="6.26528">
        <ele>999</ele>
        <time>2012-05-04T09:36:46Z</time>
      </trkpt>
      <trkpt lat="43.64982" lon="6.26546">
        <ele>1003.9</ele>
        <time>2012-05-04T09:37:23Z</time>
      </trkpt>
      <trkpt lat="43.64981" lon="6.26557">
        <ele>1004.7</ele>
        <time>2012-05-04T09:37:35Z</time>
      </trkpt>
      <trkpt lat="43.64979" lon="6.26569">
        <ele>1003.3</ele>
        <time>2012-05-04T09:37:44Z</time>
      </trkpt>
      <trkpt lat="43.64973" lon="6.26577">
        <ele>1004.5</ele>
        <time>2012-05-04T09:38:12Z</time>
      </trkpt>
      <trkpt lat="43.64973" lon="6.26578">
        <ele>1004.5</ele>
        <time>2012-05-04T09:38:13Z</time>
      </trkpt>
      <trkpt lat="43.6496" lon="6.26592">
        <ele>1005.6</ele>
        <time>2012-05-04T09:38:31Z</time>
      </trkpt>
      <trkpt lat="43.64954" lon="6.26601">
        <ele>1006.3</ele>
        <time>2012-05-04T09:38:42Z</time>
      </trkpt>
      <trkpt lat="43.64952" lon="6.26612">
        <ele>1005.7</ele>
        <time>2012-05-04T09:38:54Z</time>
      </trkpt>
      <trkpt lat="43.64953" lon="6.26624">
        <ele>1005.4</ele>
        <time>2012-05-04T09:39:09Z</time>
      </trkpt>
      <trkpt lat="43.64949" lon="6.26635">
        <ele>1004.5</ele>
        <time>2012-05-04T09:39:20Z</time>
      </trkpt>
      <trkpt lat="43.64949" lon="6.26636">
        <ele>1004.9</ele>
        <time>2012-05-04T09:39:21Z</time>
      </trkpt>
      <trkpt lat="43.64937" lon="6.26651">
        <ele>1008.9</ele>
        <time>2012-05-04T09:39:51Z</time>
      </trkpt>
      <trkpt lat="43.64933" lon="6.26661">
        <ele>1010.6</ele>
        <time>2012-05-04T09:40:04Z</time>
      </trkpt>
      <trkpt lat="43.64929" lon="6.26672">
        <ele>1010.1</ele>
        <time>2012-05-04T09:40:16Z</time>
      </trkpt>
      <trkpt lat="43.64924" lon="6.26682">
        <ele>1012.8</ele>
        <time>2012-05-04T09:40:33Z</time>
      </trkpt>
      <trkpt lat="43.64924" lon="6.26683">
        <ele>1012.9</ele>
        <time>2012-05-04T09:40:34Z</time>
      </trkpt>
      <trkpt lat="43.64918" lon="6.26705">
        <ele>1013.8</ele>
        <time>2012-05-04T09:43:14Z</time>
      </trkpt>
      <trkpt lat="43.64918" lon="6.26707">
        <ele>1013.8</ele>
        <time>2012-05-04T09:43:15Z</time>
      </trkpt>
      <trkpt lat="43.64914" lon="6.26728">
        <ele>1016</ele>
        <time>2012-05-04T09:43:50Z</time>
      </trkpt>
      <trkpt lat="43.64911" lon="6.26739">
        <ele>1017.8</ele>
        <time>2012-05-04T09:44:32Z</time>
      </trkpt>
      <trkpt lat="43.6491" lon="6.2674">
        <ele>1017.5</ele>
        <time>2012-05-04T09:44:33Z</time>
      </trkpt>
      <trkpt lat="43.64905" lon="6.26762">
        <ele>1021.4</ele>
        <time>2012-05-04T09:45:41Z</time>
      </trkpt>
      <trkpt lat="43.64905" lon="6.26763">
        <ele>1021.4</ele>
        <time>2012-05-04T09:45:42Z</time>
      </trkpt>
      <trkpt lat="43.649" lon="6.26785">
        <ele>1025</ele>
        <time>2012-05-04T09:46:13Z</time>
      </trkpt>
      <trkpt lat="43.64897" lon="6.26796">
        <ele>1026.1</ele>
        <time>2012-05-04T09:46:35Z</time>
      </trkpt>
      <trkpt lat="43.64891" lon="6.26806">
        <ele>1027.8</ele>
        <time>2012-05-04T09:48:29Z</time>
      </trkpt>
      <trkpt lat="43.64891" lon="6.26806">
        <ele>1028.2</ele>
        <time>2012-05-04T09:48:30Z</time>
      </trkpt>
      <trkpt lat="43.64886" lon="6.26829">
        <ele>1030.3</ele>
        <time>2012-05-04T09:50:42Z</time>
      </trkpt>
      <trkpt lat="43.64886" lon="6.26829">
        <ele>1030.3</ele>
        <time>2012-05-04T09:50:43Z</time>
      </trkpt>
      <trkpt lat="43.64882" lon="6.26851">
        <ele>1028.9</ele>
        <time>2012-05-04T09:51:02Z</time>
      </trkpt>
      <trkpt lat="43.64879" lon="6.26861">
        <ele>1028.8</ele>
        <time>2012-05-04T09:51:09Z</time>
      </trkpt>
      <trkpt lat="43.64877" lon="6.26873">
        <ele>1030.3</ele>
        <time>2012-05-04T09:51:22Z</time>
      </trkpt>
      <trkpt lat="43.64871" lon="6.26881">
        <ele>1033.6</ele>
        <time>2012-05-04T09:52:09Z</time>
      </trkpt>
      <trkpt lat="43.6487" lon="6.26882">
        <ele>1033.9</ele>
        <time>2012-05-04T09:52:10Z</time>
      </trkpt>
      <trkpt lat="43.64867" lon="6.26903">
        <ele>1030.9</ele>
        <time>2012-05-04T09:52:28Z</time>
      </trkpt>
      <trkpt lat="43.64863" lon="6.26914">
        <ele>1030</ele>
        <time>2012-05-04T09:52:36Z</time>
      </trkpt>
      <trkpt lat="43.6486" lon="6.26926">
        <ele>1028.5</ele>
        <time>2012-05-04T09:52:46Z</time>
      </trkpt>
      <trkpt lat="43.64855" lon="6.26934">
        <ele>1028.7</ele>
        <time>2012-05-04T09:52:54Z</time>
      </trkpt>
      <trkpt lat="43.64847" lon="6.26939">
        <ele>1028.3</ele>
        <time>2012-05-04T09:52:58Z</time>
      </trkpt>
      <trkpt lat="43.64846" lon="6.2695">
        <ele>1027.3</ele>
        <time>2012-05-04T09:53:07Z</time>
      </trkpt>
      <trkpt lat="43.64844" lon="6.2696">
        <ele>1025.9</ele>
        <time>2012-05-04T09:53:11Z</time>
      </trkpt>
      <trkpt lat="43.64843" lon="6.26962">
        <ele>1026</ele>
        <time>2012-05-04T09:53:12Z</time>
      </trkpt>
      <trkpt lat="43.6483" lon="6.26974">
        <ele>1026.1</ele>
        <time>2012-05-04T09:53:26Z</time>
      </trkpt>
      <trkpt lat="43.64826" lon="6.26983">
        <ele>1025.9</ele>
        <time>2012-05-04T09:53:32Z</time>
      </trkpt>
      <trkpt lat="43.6482" lon="6.26992">
        <ele>1026.8</ele>
        <time>2012-05-04T09:53:42Z</time>
      </trkpt>
      <trkpt lat="43.64817" lon="6.27003">
        <ele>1025.2</ele>
        <time>2012-05-04T09:53:52Z</time>
      </trkpt>
      <trkpt lat="43.64811" lon="6.2701">
        <ele>1025.2</ele>
        <time>2012-05-04T09:53:59Z</time>
      </trkpt>
      <trkpt lat="43.64803" lon="6.27015">
        <ele>1026.3</ele>
        <time>2012-05-04T09:54:09Z</time>
      </trkpt>
      <trkpt lat="43.64801" lon="6.27026">
        <ele>1026.5</ele>
        <time>2012-05-04T09:54:20Z</time>
      </trkpt>
      <trkpt lat="43.648" lon="6.27027">
        <ele>1026.7</ele>
        <time>2012-05-04T09:54:21Z</time>
      </trkpt>
      <trkpt lat="43.64792" lon="6.27045">
        <ele>1027.8</ele>
        <time>2012-05-04T09:54:35Z</time>
      </trkpt>
      <trkpt lat="43.64784" lon="6.27047">
        <ele>1029.1</ele>
        <time>2012-05-04T09:54:46Z</time>
      </trkpt>
      <trkpt lat="43.64776" lon="6.27053">
        <ele>1029.5</ele>
        <time>2012-05-04T09:54:55Z</time>
      </trkpt>
      <trkpt lat="43.64769" lon="6.2706">
        <ele>1029.3</ele>
        <time>2012-05-04T09:55:06Z</time>
      </trkpt>
      <trkpt lat="43.64761" lon="6.2706">
        <ele>1029</ele>
        <time>2012-05-04T09:55:17Z</time>
      </trkpt>
      <trkpt lat="43.64752" lon="6.2706">
        <ele>1030.1</ele>
        <time>2012-05-04T09:55:32Z</time>
      </trkpt>
      <trkpt lat="43.64752" lon="6.27059">
        <ele>1030</ele>
        <time>2012-05-04T09:55:33Z</time>
      </trkpt>
      <trkpt lat="43.64736" lon="6.27063">
        <ele>1032</ele>
        <time>2012-05-04T09:56:00Z</time>
      </trkpt>
      <trkpt lat="43.64728" lon="6.27069">
        <ele>1033.2</ele>
        <time>2012-05-04T09:56:11Z</time>
      </trkpt>
      <trkpt lat="43.6472" lon="6.27074">
        <ele>1033</ele>
        <time>2012-05-04T09:56:25Z</time>
      </trkpt>
      <trkpt lat="43.64713" lon="6.27081">
        <ele>1032.4</ele>
        <time>2012-05-04T09:56:39Z</time>
      </trkpt>
      <trkpt lat="43.64712" lon="6.27082">
        <ele>1032.3</ele>
        <time>2012-05-04T09:56:40Z</time>
      </trkpt>
      <trkpt lat="43.64701" lon="6.27099">
        <ele>1028.4</ele>
        <time>2012-05-04T09:57:16Z</time>
      </trkpt>
      <trkpt lat="43.64696" lon="6.27108">
        <ele>1027.9</ele>
        <time>2012-05-04T09:57:31Z</time>
      </trkpt>
      <trkpt lat="43.64692" lon="6.27118">
        <ele>1026.6</ele>
        <time>2012-05-04T09:57:42Z</time>
      </trkpt>
      <trkpt lat="43.64691" lon="6.27119">
        <ele>1026.3</ele>
        <time>2012-05-04T09:57:43Z</time>
      </trkpt>
      <trkpt lat="43.64678" lon="6.27131">
        <ele>1025.1</ele>
        <time>2012-05-04T09:58:18Z</time>
      </trkpt>
      <trkpt lat="43.6467" lon="6.27135">
        <ele>1025.1</ele>
        <time>2012-05-04T09:58:30Z</time>
      </trkpt>
      <trkpt lat="43.64662" lon="6.27142">
        <ele>1026.6</ele>
        <time>2012-05-04T09:58:40Z</time>
      </trkpt>
      <trkpt lat="43.64656" lon="6.2715">
        <ele>1028</ele>
        <time>2012-05-04T09:58:52Z</time>
      </trkpt>
      <trkpt lat="43.64655" lon="6.2715">
        <ele>1028.1</ele>
        <time>2012-05-04T09:58:53Z</time>
      </trkpt>
      <trkpt lat="43.64644" lon="6.27167">
        <ele>1030.6</ele>
        <time>2012-05-04T09:59:24Z</time>
      </trkpt>
      <trkpt lat="43.6464" lon="6.27177">
        <ele>1033.3</ele>
        <time>2012-05-04T09:59:47Z</time>
      </trkpt>
      <trkpt lat="43.64633" lon="6.27185">
        <ele>1033.6</ele>
        <time>2012-05-04T10:00:02Z</time>
      </trkpt>
      <trkpt lat="43.64633" lon="6.27186">
        <ele>1033.9</ele>
        <time>2012-05-04T10:00:03Z</time>
      </trkpt>
      <trkpt lat="43.64619" lon="6.27199">
        <ele>1035.3</ele>
        <time>2012-05-04T10:00:33Z</time>
      </trkpt>
      <trkpt lat="43.6461" lon="6.272">
        <ele>1038.6</ele>
        <time>2012-05-04T10:01:11Z</time>
      </trkpt>
      <trkpt lat="43.6461" lon="6.27201">
        <ele>1038.6</ele>
        <time>2012-05-04T10:01:12Z</time>
      </trkpt>
      <trkpt lat="43.64602" lon="6.27206">
        <ele>1040.8</ele>
        <time>2012-05-04T10:05:53Z</time>
      </trkpt>
      <trkpt lat="43.64585" lon="6.2721">
        <ele>1043.5</ele>
        <time>2012-05-04T10:06:40Z</time>
      </trkpt>
      <trkpt lat="43.64576" lon="6.27209">
        <ele>1044.5</ele>
        <time>2012-05-04T10:07:21Z</time>
      </trkpt>
      <trkpt lat="43.64576" lon="6.27209">
        <ele>1044.6</ele>
        <time>2012-05-04T10:07:22Z</time>
      </trkpt>
      <trkpt lat="43.64559" lon="6.27211">
        <ele>1049</ele>
        <time>2012-05-04T10:08:43Z</time>
      </trkpt>
      <trkpt lat="43.64559" lon="6.27211">
        <ele>1048.7</ele>
        <time>2012-05-04T10:08:44Z</time>
      </trkpt>
      <trkpt lat="43.64542" lon="6.27208">
        <ele>1052.3</ele>
        <time>2012-05-04T10:09:34Z</time>
      </trkpt>
      <trkpt lat="43.64534" lon="6.27211">
        <ele>1053.4</ele>
        <time>2012-05-04T10:10:10Z</time>
      </trkpt>
      <trkpt lat="43.64533" lon="6.27211">
        <ele>1053.4</ele>
        <time>2012-05-04T10:10:11Z</time>
      </trkpt>
      <trkpt lat="43.64518" lon="6.27221">
        <ele>1059.5</ele>
        <time>2012-05-04T10:11:24Z</time>
      </trkpt>
      <trkpt lat="43.64518" lon="6.27221">
        <ele>1059.6</ele>
        <time>2012-05-04T10:11:25Z</time>
      </trkpt>
      <trkpt lat="43.64502" lon="6.27229">
        <ele>1068</ele>
        <time>2012-05-04T10:12:36Z</time>
      </trkpt>
      <trkpt lat="43.64501" lon="6.2723">
        <ele>1068.2</ele>
        <time>2012-05-04T10:12:37Z</time>
      </trkpt>
      <trkpt lat="43.64484" lon="6.27231">
        <ele>1072.6</ele>
        <time>2012-05-04T10:13:30Z</time>
      </trkpt>
      <trkpt lat="43.64477" lon="6.27237">
        <ele>1074.6</ele>
        <time>2012-05-04T10:13:47Z</time>
      </trkpt>
      <trkpt lat="43.64476" lon="6.27237">
        <ele>1074.8</ele>
        <time>2012-05-04T10:13:48Z</time>
      </trkpt>
      <trkpt lat="43.64464" lon="6.27251">
        <ele>1076.4</ele>
        <time>2012-05-04T10:14:14Z</time>
      </trkpt>
      <trkpt lat="43.64458" lon="6.27259">
        <ele>1077.7</ele>
        <time>2012-05-04T10:14:28Z</time>
      </trkpt>
      <trkpt lat="43.64449" lon="6.27261">
        <ele>1077.7</ele>
        <time>2012-05-04T10:16:33Z</time>
      </trkpt>
      <trkpt lat="43.64449" lon="6.2726">
        <ele>1077.2</ele>
        <time>2012-05-04T10:16:34Z</time>
      </trkpt>
      <trkpt lat="43.6445" lon="6.27239">
        <ele>1073.5</ele>
        <time>2012-05-04T10:16:53Z</time>
      </trkpt>
      <trkpt lat="43.64449" lon="6.27227">
        <ele>1070.5</ele>
        <time>2012-05-04T10:17:06Z</time>
      </trkpt>
      <trkpt lat="43.64453" lon="6.27238">
        <ele>1072.2</ele>
        <time>2012-05-04T10:18:35Z</time>
      </trkpt>
      <trkpt lat="43.64453" lon="6.27238">
        <ele>1072.5</ele>
        <time>2012-05-04T10:18:36Z</time>
      </trkpt>
      <trkpt lat="43.64452" lon="6.27262">
        <ele>1077.3</ele>
        <time>2012-05-04T10:19:03Z</time>
      </trkpt>
      <trkpt lat="43.6445" lon="6.2725">
        <ele>1077.5</ele>
        <time>2012-05-04T10:22:18Z</time>
      </trkpt>
      <trkpt lat="43.6445" lon="6.2725">
        <ele>1077.4</ele>
        <time>2012-05-04T10:22:19Z</time>
      </trkpt>
      <trkpt lat="43.64449" lon="6.27251">
        <ele>1077.2</ele>
        <time>2012-05-04T10:25:51Z</time>
      </trkpt>
      <trkpt lat="43.64449" lon="6.27251">
        <ele>1077.2</ele>
        <time>2012-05-04T10:25:52Z</time>
      </trkpt>
      <trkpt lat="43.64453" lon="6.27262">
        <ele>1078.2</ele>
        <time>2012-05-04T10:26:59Z</time>
      </trkpt>
      <trkpt lat="43.64462" lon="6.27262">
        <ele>1077.3</ele>
        <time>2012-05-04T10:44:10Z</time>
      </trkpt>
      <trkpt lat="43.64458" lon="6.27261">
        <ele>1077.2</ele>
        <time>2012-05-04T10:44:41Z</time>
      </trkpt>
      <trkpt lat="43.64449" lon="6.27259">
        <ele>1079.2</ele>
        <time>2012-05-04T10:50:43Z</time>
      </trkpt>
      <trkpt lat="43.64449" lon="6.27259">
        <ele>1079.2</ele>
        <time>2012-05-04T10:50:44Z</time>
      </trkpt>
      <trkpt lat="43.64455" lon="6.27269">
        <ele>1076.9</ele>
        <time>2012-05-04T11:14:20Z</time>
      </trkpt>
      <trkpt lat="43.64457" lon="6.27292">
        <ele>1074.1</ele>
        <time>2012-05-04T11:14:49Z</time>
      </trkpt>
      <trkpt lat="43.64451" lon="6.27301">
        <ele>1073.3</ele>
        <time>2012-05-04T11:15:02Z</time>
      </trkpt>
      <trkpt lat="43.64444" lon="6.27308">
        <ele>1070.9</ele>
        <time>2012-05-04T11:15:17Z</time>
      </trkpt>
      <trkpt lat="43.64438" lon="6.27317">
        <ele>1070.5</ele>
        <time>2012-05-04T11:15:27Z</time>
      </trkpt>
      <trkpt lat="43.64438" lon="6.27318">
        <ele>1070</ele>
        <time>2012-05-04T11:15:28Z</time>
      </trkpt>
      <trkpt lat="43.64429" lon="6.27332">
        <ele>1069.5</ele>
        <time>2012-05-04T11:15:48Z</time>
      </trkpt>
      <trkpt lat="43.64421" lon="6.27335">
        <ele>1068.4</ele>
        <time>2012-05-04T11:16:03Z</time>
      </trkpt>
      <trkpt lat="43.64415" lon="6.27343">
        <ele>1067.5</ele>
        <time>2012-05-04T11:16:14Z</time>
      </trkpt>
      <trkpt lat="43.64411" lon="6.27354">
        <ele>1067</ele>
        <time>2012-05-04T11:16:26Z</time>
      </trkpt>
      <trkpt lat="43.64405" lon="6.27362">
        <ele>1063</ele>
        <time>2012-05-04T11:16:41Z</time>
      </trkpt>
      <trkpt lat="43.64404" lon="6.27362">
        <ele>1063.1</ele>
        <time>2012-05-04T11:16:42Z</time>
      </trkpt>
      <trkpt lat="43.64393" lon="6.27381">
        <ele>1060.9</ele>
        <time>2012-05-04T11:17:04Z</time>
      </trkpt>
      <trkpt lat="43.64387" lon="6.27389">
        <ele>1060.3</ele>
        <time>2012-05-04T11:17:13Z</time>
      </trkpt>
      <trkpt lat="43.64379" lon="6.27394">
        <ele>1058.3</ele>
        <time>2012-05-04T11:17:24Z</time>
      </trkpt>
      <trkpt lat="43.64372" lon="6.274">
        <ele>1058.2</ele>
        <time>2012-05-04T11:17:43Z</time>
      </trkpt>
      <trkpt lat="43.64371" lon="6.27401">
        <ele>1058.7</ele>
        <time>2012-05-04T11:17:44Z</time>
      </trkpt>
      <trkpt lat="43.64358" lon="6.27413">
        <ele>1056.8</ele>
        <time>2012-05-04T11:18:13Z</time>
      </trkpt>
      <trkpt lat="43.6435" lon="6.27419">
        <ele>1055.5</ele>
        <time>2012-05-04T11:18:33Z</time>
      </trkpt>
      <trkpt lat="43.64346" lon="6.2743">
        <ele>1053.8</ele>
        <time>2012-05-04T11:18:44Z</time>
      </trkpt>
      <trkpt lat="43.64346" lon="6.27431">
        <ele>1053.9</ele>
        <time>2012-05-04T11:18:45Z</time>
      </trkpt>
      <trkpt lat="43.64335" lon="6.27448">
        <ele>1050</ele>
        <time>2012-05-04T11:19:14Z</time>
      </trkpt>
      <trkpt lat="43.64328" lon="6.27455">
        <ele>1049.3</ele>
        <time>2012-05-04T11:19:24Z</time>
      </trkpt>
      <trkpt lat="43.64323" lon="6.27463">
        <ele>1049.5</ele>
        <time>2012-05-04T11:19:33Z</time>
      </trkpt>
      <trkpt lat="43.64315" lon="6.27469">
        <ele>1048.9</ele>
        <time>2012-05-04T11:19:48Z</time>
      </trkpt>
      <trkpt lat="43.64314" lon="6.27469">
        <ele>1049</ele>
        <time>2012-05-04T11:19:49Z</time>
      </trkpt>
      <trkpt lat="43.643" lon="6.2748">
        <ele>1050.2</ele>
        <time>2012-05-04T11:20:04Z</time>
      </trkpt>
      <trkpt lat="43.64293" lon="6.27488">
        <ele>1048.7</ele>
        <time>2012-05-04T11:20:15Z</time>
      </trkpt>
      <trkpt lat="43.64287" lon="6.27496">
        <ele>1048.7</ele>
        <time>2012-05-04T11:20:27Z</time>
      </trkpt>
      <trkpt lat="43.64281" lon="6.27506">
        <ele>1048.1</ele>
        <time>2012-05-04T11:20:38Z</time>
      </trkpt>
      <trkpt lat="43.64279" lon="6.27518">
        <ele>1047.8</ele>
        <time>2012-05-04T11:20:49Z</time>
      </trkpt>
      <trkpt lat="43.64279" lon="6.2752">
        <ele>1047.2</ele>
        <time>2012-05-04T11:20:50Z</time>
      </trkpt>
      <trkpt lat="43.64273" lon="6.2754">
        <ele>1045.5</ele>
        <time>2012-05-04T11:21:14Z</time>
      </trkpt>
      <trkpt lat="43.64266" lon="6.27546">
        <ele>1044.9</ele>
        <time>2012-05-04T11:21:24Z</time>
      </trkpt>
      <trkpt lat="43.64261" lon="6.27556">
        <ele>1043.4</ele>
        <time>2012-05-04T11:21:36Z</time>
      </trkpt>
      <trkpt lat="43.64259" lon="6.27568">
        <ele>1041.2</ele>
        <time>2012-05-04T11:21:50Z</time>
      </trkpt>
      <trkpt lat="43.64259" lon="6.27568">
        <ele>1040.7</ele>
        <time>2012-05-04T11:21:51Z</time>
      </trkpt>
      <trkpt lat="43.64255" lon="6.2759">
        <ele>1038.6</ele>
        <time>2012-05-04T11:22:24Z</time>
      </trkpt>
      <trkpt lat="43.6425" lon="6.27599">
        <ele>1037</ele>
        <time>2012-05-04T11:22:42Z</time>
      </trkpt>
      <trkpt lat="43.64243" lon="6.27607">
        <ele>1035.6</ele>
        <time>2012-05-04T11:22:51Z</time>
      </trkpt>
      <trkpt lat="43.64242" lon="6.27607">
        <ele>1035.6</ele>
        <time>2012-05-04T11:22:52Z</time>
      </trkpt>
      <trkpt lat="43.64232" lon="6.27625">
        <ele>1034</ele>
        <time>2012-05-04T11:23:09Z</time>
      </trkpt>
      <trkpt lat="43.64228" lon="6.27634">
        <ele>1032.4</ele>
        <time>2012-05-04T11:23:20Z</time>
      </trkpt>
      <trkpt lat="43.64225" lon="6.27646">
        <ele>1032.3</ele>
        <time>2012-05-04T11:23:33Z</time>
      </trkpt>
      <trkpt lat="43.64218" lon="6.27651">
        <ele>1032</ele>
        <time>2012-05-04T11:23:39Z</time>
      </trkpt>
      <trkpt lat="43.64211" lon="6.27658">
        <ele>1031.2</ele>
        <time>2012-05-04T11:23:52Z</time>
      </trkpt>
      <trkpt lat="43.6421" lon="6.27658">
        <ele>1031.4</ele>
        <time>2012-05-04T11:23:53Z</time>
      </trkpt>
      <trkpt lat="43.64199" lon="6.27673">
        <ele>1031.7</ele>
        <time>2012-05-04T11:24:06Z</time>
      </trkpt>
      <trkpt lat="43.64192" lon="6.27682">
        <ele>1032.3</ele>
        <time>2012-05-04T11:24:16Z</time>
      </trkpt>
      <trkpt lat="43.64187" lon="6.27691">
        <ele>1032.9</ele>
        <time>2012-05-04T11:24:26Z</time>
      </trkpt>
      <trkpt lat="43.64182" lon="6.27701">
        <ele>1033.2</ele>
        <time>2012-05-04T11:24:39Z</time>
      </trkpt>
      <trkpt lat="43.64178" lon="6.27712">
        <ele>1034.3</ele>
        <time>2012-05-04T11:24:52Z</time>
      </trkpt>
      <trkpt lat="43.64172" lon="6.2772">
        <ele>1034.9</ele>
        <time>2012-05-04T11:25:03Z</time>
      </trkpt>
      <trkpt lat="43.64171" lon="6.27721">
        <ele>1034.9</ele>
        <time>2012-05-04T11:25:04Z</time>
      </trkpt>
      <trkpt lat="43.64161" lon="6.27738">
        <ele>1034.7</ele>
        <time>2012-05-04T11:25:46Z</time>
      </trkpt>
      <trkpt lat="43.64158" lon="6.27749">
        <ele>1036.6</ele>
        <time>2012-05-04T11:26:03Z</time>
      </trkpt>
      <trkpt lat="43.64151" lon="6.27757">
        <ele>1038.1</ele>
        <time>2012-05-04T11:26:14Z</time>
      </trkpt>
      <trkpt lat="43.64151" lon="6.27758">
        <ele>1038.3</ele>
        <time>2012-05-04T11:26:15Z</time>
      </trkpt>
      <trkpt lat="43.64139" lon="6.27775">
        <ele>1040.4</ele>
        <time>2012-05-04T11:26:42Z</time>
      </trkpt>
      <trkpt lat="43.64133" lon="6.27781">
        <ele>1041.1</ele>
        <time>2012-05-04T11:26:51Z</time>
      </trkpt>
      <trkpt lat="43.64129" lon="6.27791">
        <ele>1041.2</ele>
        <time>2012-05-04T11:27:00Z</time>
      </trkpt>
      <trkpt lat="43.64122" lon="6.278">
        <ele>1041.5</ele>
        <time>2012-05-04T11:27:11Z</time>
      </trkpt>
      <trkpt lat="43.64116" lon="6.27808">
        <ele>1042.6</ele>
        <time>2012-05-04T11:27:23Z</time>
      </trkpt>
      <trkpt lat="43.64116" lon="6.27808">
        <ele>1042.5</ele>
        <time>2012-05-04T11:27:24Z</time>
      </trkpt>
      <trkpt lat="43.64102" lon="6.27819">
        <ele>1043.1</ele>
        <time>2012-05-04T11:27:42Z</time>
      </trkpt>
      <trkpt lat="43.64095" lon="6.27823">
        <ele>1043</ele>
        <time>2012-05-04T11:27:49Z</time>
      </trkpt>
      <trkpt lat="43.64088" lon="6.2783">
        <ele>1043</ele>
        <time>2012-05-04T11:27:59Z</time>
      </trkpt>
      <trkpt lat="43.64082" lon="6.27839">
        <ele>1044.5</ele>
        <time>2012-05-04T11:28:14Z</time>
      </trkpt>
      <trkpt lat="43.64076" lon="6.27848">
        <ele>1046.3</ele>
        <time>2012-05-04T11:28:28Z</time>
      </trkpt>
      <trkpt lat="43.64076" lon="6.27849">
        <ele>1046.4</ele>
        <time>2012-05-04T11:28:29Z</time>
      </trkpt>
      <trkpt lat="43.64063" lon="6.27862">
        <ele>1046.8</ele>
        <time>2012-05-04T11:28:49Z</time>
      </trkpt>
      <trkpt lat="43.64057" lon="6.27871">
        <ele>1047.2</ele>
        <time>2012-05-04T11:28:59Z</time>
      </trkpt>
      <trkpt lat="43.6405" lon="6.27879">
        <ele>1048.1</ele>
        <time>2012-05-04T11:29:12Z</time>
      </trkpt>
      <trkpt lat="43.64046" lon="6.27888">
        <ele>1049.5</ele>
        <time>2012-05-04T11:29:24Z</time>
      </trkpt>
      <trkpt lat="43.64041" lon="6.27898">
        <ele>1050.8</ele>
        <time>2012-05-04T11:29:43Z</time>
      </trkpt>
      <trkpt lat="43.64041" lon="6.27899">
        <ele>1050.7</ele>
        <time>2012-05-04T11:29:44Z</time>
      </trkpt>
      <trkpt lat="43.64036" lon="6.27922">
        <ele>1056</ele>
        <time>2012-05-04T11:30:16Z</time>
      </trkpt>
      <trkpt lat="43.64033" lon="6.27933">
        <ele>1056.8</ele>
        <time>2012-05-04T11:30:30Z</time>
      </trkpt>
      <trkpt lat="43.64029" lon="6.27944">
        <ele>1058.6</ele>
        <time>2012-05-04T11:30:44Z</time>
      </trkpt>
      <trkpt lat="43.64029" lon="6.27944">
        <ele>1058.8</ele>
        <time>2012-05-04T11:30:45Z</time>
      </trkpt>
      <trkpt lat="43.64015" lon="6.27958">
        <ele>1062.4</ele>
        <time>2012-05-04T11:31:17Z</time>
      </trkpt>
      <trkpt lat="43.6401" lon="6.27968">
        <ele>1064.7</ele>
        <time>2012-05-04T11:31:29Z</time>
      </trkpt>
      <trkpt lat="43.64003" lon="6.27976">
        <ele>1065.2</ele>
        <time>2012-05-04T11:31:43Z</time>
      </trkpt>
      <trkpt lat="43.63996" lon="6.27984">
        <ele>1068</ele>
        <time>2012-05-04T11:32:02Z</time>
      </trkpt>
      <trkpt lat="43.63995" lon="6.27984">
        <ele>1067.9</ele>
        <time>2012-05-04T11:32:03Z</time>
      </trkpt>
      <trkpt lat="43.63982" lon="6.2799">
        <ele>1069</ele>
        <time>2012-05-04T11:35:47Z</time>
      </trkpt>
      <trkpt lat="43.63982" lon="6.27989">
        <ele>1069.2</ele>
        <time>2012-05-04T11:35:48Z</time>
      </trkpt>
      <trkpt lat="43.63997" lon="6.2799">
        <ele>1069.1</ele>
        <time>2012-05-04T11:38:14Z</time>
      </trkpt>
      <trkpt lat="43.63998" lon="6.27991">
        <ele>1068.8</ele>
        <time>2012-05-04T11:38:15Z</time>
      </trkpt>
      <trkpt lat="43.64013" lon="6.27981">
        <ele>1062.9</ele>
        <time>2012-05-04T11:38:52Z</time>
      </trkpt>
      <trkpt lat="43.6402" lon="6.27974">
        <ele>1061.1</ele>
        <time>2012-05-04T11:39:07Z</time>
      </trkpt>
      <trkpt lat="43.64028" lon="6.27969">
        <ele>1060.1</ele>
        <time>2012-05-04T11:39:20Z</time>
      </trkpt>
      <trkpt lat="43.64028" lon="6.27968">
        <ele>1059.4</ele>
        <time>2012-05-04T11:39:20Z</time>
      </trkpt>
      <trkpt lat="43.64038" lon="6.27949">
        <ele>1057</ele>
        <time>2012-05-04T11:39:36Z</time>
      </trkpt>
      <trkpt lat="43.64041" lon="6.27938">
        <ele>1056.3</ele>
        <time>2012-05-04T11:39:46Z</time>
      </trkpt>
      <trkpt lat="43.64044" lon="6.27927">
        <ele>1051.9</ele>
        <time>2012-05-04T11:40:06Z</time>
      </trkpt>
      <trkpt lat="43.64047" lon="6.27917">
        <ele>1050.2</ele>
        <time>2012-05-04T11:40:20Z</time>
      </trkpt>
      <trkpt lat="43.6405" lon="6.27906">
        <ele>1047.9</ele>
        <time>2012-05-04T11:40:35Z</time>
      </trkpt>
      <trkpt lat="43.64051" lon="6.27904">
        <ele>1048.4</ele>
        <time>2012-05-04T11:40:36Z</time>
      </trkpt>
      <trkpt lat="43.64062" lon="6.27895">
        <ele>1047</ele>
        <time>2012-05-04T11:40:56Z</time>
      </trkpt>
      <trkpt lat="43.64068" lon="6.27886">
        <ele>1046.9</ele>
        <time>2012-05-04T11:41:05Z</time>
      </trkpt>
      <trkpt lat="43.64074" lon="6.27878">
        <ele>1046.3</ele>
        <time>2012-05-04T11:41:18Z</time>
      </trkpt>
      <trkpt lat="43.6408" lon="6.27869">
        <ele>1046.7</ele>
        <time>2012-05-04T11:41:29Z</time>
      </trkpt>
      <trkpt lat="43.64084" lon="6.27859">
        <ele>1044.1</ele>
        <time>2012-05-04T11:41:40Z</time>
      </trkpt>
      <trkpt lat="43.64084" lon="6.27858">
        <ele>1044</ele>
        <time>2012-05-04T11:41:41Z</time>
      </trkpt>
      <trkpt lat="43.64094" lon="6.27841">
        <ele>1043.4</ele>
        <time>2012-05-04T11:42:08Z</time>
      </trkpt>
      <trkpt lat="43.64103" lon="6.27836">
        <ele>1043.7</ele>
        <time>2012-05-04T11:42:21Z</time>
      </trkpt>
      <trkpt lat="43.6411" lon="6.27831">
        <ele>1043.7</ele>
        <time>2012-05-04T11:42:34Z</time>
      </trkpt>
      <trkpt lat="43.64117" lon="6.27827">
        <ele>1042.4</ele>
        <time>2012-05-04T11:42:45Z</time>
      </trkpt>
      <trkpt lat="43.64119" lon="6.27826">
        <ele>1042.7</ele>
        <time>2012-05-04T11:42:46Z</time>
      </trkpt>
      <trkpt lat="43.64132" lon="6.27813">
        <ele>1042</ele>
        <time>2012-05-04T11:43:04Z</time>
      </trkpt>
      <trkpt lat="43.64137" lon="6.27805">
        <ele>1041.6</ele>
        <time>2012-05-04T11:43:14Z</time>
      </trkpt>
      <trkpt lat="43.64145" lon="6.27798">
        <ele>1040.3</ele>
        <time>2012-05-04T11:43:23Z</time>
      </trkpt>
      <trkpt lat="43.64151" lon="6.27789">
        <ele>1038.5</ele>
        <time>2012-05-04T11:43:39Z</time>
      </trkpt>
      <trkpt lat="43.64154" lon="6.27779">
        <ele>1038.1</ele>
        <time>2012-05-04T11:43:47Z</time>
      </trkpt>
      <trkpt lat="43.64155" lon="6.27778">
        <ele>1038.1</ele>
        <time>2012-05-04T11:43:48Z</time>
      </trkpt>
      <trkpt lat="43.64161" lon="6.27758">
        <ele>1035.1</ele>
        <time>2012-05-04T11:44:09Z</time>
      </trkpt>
      <trkpt lat="43.64167" lon="6.2775">
        <ele>1033.6</ele>
        <time>2012-05-04T11:45:09Z</time>
      </trkpt>
      <trkpt lat="43.64168" lon="6.2775">
        <ele>1033.8</ele>
        <time>2012-05-04T11:45:10Z</time>
      </trkpt>
      <trkpt lat="43.64184" lon="6.27749">
        <ele>1031.4</ele>
        <time>2012-05-04T11:45:49Z</time>
      </trkpt>
      <trkpt lat="43.64193" lon="6.2775">
        <ele>1030.7</ele>
        <time>2012-05-04T11:45:59Z</time>
      </trkpt>
      <trkpt lat="43.64202" lon="6.27752">
        <ele>1027.7</ele>
        <time>2012-05-04T11:46:17Z</time>
      </trkpt>
      <trkpt lat="43.64202" lon="6.27752">
        <ele>1027.6</ele>
        <time>2012-05-04T11:46:18Z</time>
      </trkpt>
      <trkpt lat="43.64217" lon="6.27742">
        <ele>1025.5</ele>
        <time>2012-05-04T11:47:15Z</time>
      </trkpt>
      <trkpt lat="43.64225" lon="6.2774">
        <ele>1021.8</ele>
        <time>2012-05-04T11:47:41Z</time>
      </trkpt>
      <trkpt lat="43.64226" lon="6.2774">
        <ele>1021.8</ele>
        <time>2012-05-04T11:47:42Z</time>
      </trkpt>
      <trkpt lat="43.64242" lon="6.2774">
        <ele>1018.6</ele>
        <time>2012-05-04T11:48:20Z</time>
      </trkpt>
      <trkpt lat="43.6425" lon="6.2774">
        <ele>1015.5</ele>
        <time>2012-05-04T11:48:37Z</time>
      </trkpt>
      <trkpt lat="43.64258" lon="6.27738">
        <ele>1015.1</ele>
        <time>2012-05-04T11:48:47Z</time>
      </trkpt>
      <trkpt lat="43.64259" lon="6.27738">
        <ele>1014.1</ele>
        <time>2012-05-04T11:48:48Z</time>
      </trkpt>
      <trkpt lat="43.64275" lon="6.27733">
        <ele>1009.6</ele>
        <time>2012-05-04T11:49:25Z</time>
      </trkpt>
      <trkpt lat="43.64283" lon="6.27729">
        <ele>1009.5</ele>
        <time>2012-05-04T11:49:36Z</time>
      </trkpt>
      <trkpt lat="43.64291" lon="6.27729">
        <ele>1006.2</ele>
        <time>2012-05-04T11:49:50Z</time>
      </trkpt>
      <trkpt lat="43.64292" lon="6.27727">
        <ele>1006</ele>
        <time>2012-05-04T11:49:51Z</time>
      </trkpt>
      <trkpt lat="43.64305" lon="6.27716">
        <ele>1004.7</ele>
        <time>2012-05-04T11:50:16Z</time>
      </trkpt>
      <trkpt lat="43.64314" lon="6.27713">
        <ele>1004.4</ele>
        <time>2012-05-04T11:50:37Z</time>
      </trkpt>
      <trkpt lat="43.64321" lon="6.27705">
        <ele>999.1</ele>
        <time>2012-05-04T11:51:11Z</time>
      </trkpt>
      <trkpt lat="43.64321" lon="6.27705">
        <ele>999.4</ele>
        <time>2012-05-04T11:51:12Z</time>
      </trkpt>
      <trkpt lat="43.64337" lon="6.27703">
        <ele>998.2</ele>
        <time>2012-05-04T11:51:32Z</time>
      </trkpt>
      <trkpt lat="43.64344" lon="6.27698">
        <ele>997</ele>
        <time>2012-05-04T11:51:41Z</time>
      </trkpt>
      <trkpt lat="43.64351" lon="6.27691">
        <ele>995.1</ele>
        <time>2012-05-04T11:51:54Z</time>
      </trkpt>
      <trkpt lat="43.6436" lon="6.2769">
        <ele>993.6</ele>
        <time>2012-05-04T11:52:02Z</time>
      </trkpt>
      <trkpt lat="43.64366" lon="6.27682">
        <ele>992.4</ele>
        <time>2012-05-04T11:52:14Z</time>
      </trkpt>
      <trkpt lat="43.64366" lon="6.27681">
        <ele>992.6</ele>
        <time>2012-05-04T11:52:15Z</time>
      </trkpt>
      <trkpt lat="43.6438" lon="6.27668">
        <ele>988.7</ele>
        <time>2012-05-04T11:52:40Z</time>
      </trkpt>
      <trkpt lat="43.64385" lon="6.27657">
        <ele>989.2</ele>
        <time>2012-05-04T11:52:48Z</time>
      </trkpt>
      <trkpt lat="43.64391" lon="6.27649">
        <ele>987.1</ele>
        <time>2012-05-04T11:52:59Z</time>
      </trkpt>
      <trkpt lat="43.64397" lon="6.2764">
        <ele>987.4</ele>
        <time>2012-05-04T11:53:13Z</time>
      </trkpt>
      <trkpt lat="43.64406" lon="6.27641">
        <ele>986.9</ele>
        <time>2012-05-04T11:53:24Z</time>
      </trkpt>
      <trkpt lat="43.64406" lon="6.27641">
        <ele>986.7</ele>
        <time>2012-05-04T11:53:25Z</time>
      </trkpt>
      <trkpt lat="43.64417" lon="6.27624">
        <ele>986.4</ele>
        <time>2012-05-04T11:53:43Z</time>
      </trkpt>
      <trkpt lat="43.64426" lon="6.2762">
        <ele>984.2</ele>
        <time>2012-05-04T11:54:00Z</time>
      </trkpt>
      <trkpt lat="43.64434" lon="6.27616">
        <ele>984</ele>
        <time>2012-05-04T11:54:18Z</time>
      </trkpt>
      <trkpt lat="43.64442" lon="6.27616">
        <ele>979.8</ele>
        <time>2012-05-04T11:54:42Z</time>
      </trkpt>
      <trkpt lat="43.64443" lon="6.27616">
        <ele>979.8</ele>
        <time>2012-05-04T11:54:43Z</time>
      </trkpt>
      <trkpt lat="43.64458" lon="6.27627">
        <ele>978.8</ele>
        <time>2012-05-04T11:55:10Z</time>
      </trkpt>
      <trkpt lat="43.64466" lon="6.27631">
        <ele>978.6</ele>
        <time>2012-05-04T11:55:20Z</time>
      </trkpt>
      <trkpt lat="43.64471" lon="6.2764">
        <ele>978.7</ele>
        <time>2012-05-04T11:55:29Z</time>
      </trkpt>
      <trkpt lat="43.64475" lon="6.27651">
        <ele>980.8</ele>
        <time>2012-05-04T11:55:39Z</time>
      </trkpt>
      <trkpt lat="43.64481" lon="6.27659">
        <ele>981.5</ele>
        <time>2012-05-04T11:55:55Z</time>
      </trkpt>
      <trkpt lat="43.64482" lon="6.2766">
        <ele>982</ele>
        <time>2012-05-04T11:55:56Z</time>
      </trkpt>
      <trkpt lat="43.64496" lon="6.27672">
        <ele>982.5</ele>
        <time>2012-05-04T11:56:19Z</time>
      </trkpt>
      <trkpt lat="43.64503" lon="6.27681">
        <ele>983.3</ele>
        <time>2012-05-04T11:56:31Z</time>
      </trkpt>
      <trkpt lat="43.6451" lon="6.27687">
        <ele>984.5</ele>
        <time>2012-05-04T11:56:44Z</time>
      </trkpt>
      <trkpt lat="43.64514" lon="6.27697">
        <ele>983.6</ele>
        <time>2012-05-04T11:57:01Z</time>
      </trkpt>
      <trkpt lat="43.64514" lon="6.27698">
        <ele>983.4</ele>
        <time>2012-05-04T11:57:02Z</time>
      </trkpt>
      <trkpt lat="43.64519" lon="6.27719">
        <ele>981</ele>
        <time>2012-05-04T11:57:25Z</time>
      </trkpt>
      <trkpt lat="43.64522" lon="6.27731">
        <ele>978.4</ele>
        <time>2012-05-04T11:58:43Z</time>
      </trkpt>
      <trkpt lat="43.64522" lon="6.27732">
        <ele>978.6</ele>
        <time>2012-05-04T11:58:44Z</time>
      </trkpt>
      <trkpt lat="43.64524" lon="6.27755">
        <ele>975.1</ele>
        <time>2012-05-04T12:00:25Z</time>
      </trkpt>
      <trkpt lat="43.64524" lon="6.27755">
        <ele>975.5</ele>
        <time>2012-05-04T12:00:26Z</time>
      </trkpt>
      <trkpt lat="43.64539" lon="6.27765">
        <ele>971.8</ele>
        <time>2012-05-04T12:01:10Z</time>
      </trkpt>
      <trkpt lat="43.64548" lon="6.27763">
        <ele>970.6</ele>
        <time>2012-05-04T12:01:32Z</time>
      </trkpt>
      <trkpt lat="43.64549" lon="6.27763">
        <ele>971</ele>
        <time>2012-05-04T12:01:33Z</time>
      </trkpt>
      <trkpt lat="43.64566" lon="6.2776">
        <ele>966.8</ele>
        <time>2012-05-04T12:02:37Z</time>
      </trkpt>
      <trkpt lat="43.64566" lon="6.2776">
        <ele>966.7</ele>
        <time>2012-05-04T12:02:38Z</time>
      </trkpt>
      <trkpt lat="43.64583" lon="6.27754">
        <ele>965.1</ele>
        <time>2012-05-04T12:03:48Z</time>
      </trkpt>
      <trkpt lat="43.64583" lon="6.27754">
        <ele>964.7</ele>
        <time>2012-05-04T12:03:49Z</time>
      </trkpt>
      <trkpt lat="43.64597" lon="6.27743">
        <ele>963.8</ele>
        <time>2012-05-04T12:04:50Z</time>
      </trkpt>
      <trkpt lat="43.64597" lon="6.27743">
        <ele>963.6</ele>
        <time>2012-05-04T12:04:51Z</time>
      </trkpt>
      <trkpt lat="43.64612" lon="6.27732">
        <ele>962.4</ele>
        <time>2012-05-04T12:05:35Z</time>
      </trkpt>
      <trkpt lat="43.6462" lon="6.27727">
        <ele>960.8</ele>
        <time>2012-05-04T12:07:01Z</time>
      </trkpt>
      <trkpt lat="43.64621" lon="6.27726">
        <ele>960.2</ele>
        <time>2012-05-04T12:07:02Z</time>
      </trkpt>
      <trkpt lat="43.64628" lon="6.27719">
        <ele>959.1</ele>
        <time>2012-05-04T12:08:17Z</time>
      </trkpt>
      <trkpt lat="43.64642" lon="6.2771">
        <ele>955.6</ele>
        <time>2012-05-04T12:08:33Z</time>
      </trkpt>
      <trkpt lat="43.6465" lon="6.27706">
        <ele>955.3</ele>
        <time>2012-05-04T12:08:39Z</time>
      </trkpt>
      <trkpt lat="43.64658" lon="6.27701">
        <ele>953.8</ele>
        <time>2012-05-04T12:08:48Z</time>
      </trkpt>
      <trkpt lat="43.64666" lon="6.27697">
        <ele>953.9</ele>
        <time>2012-05-04T12:08:54Z</time>
      </trkpt>
      <trkpt lat="43.64674" lon="6.27693">
        <ele>951</ele>
        <time>2012-05-04T12:09:00Z</time>
      </trkpt>
      <trkpt lat="43.64682" lon="6.27687">
        <ele>950.7</ele>
        <time>2012-05-04T12:09:12Z</time>
      </trkpt>
      <trkpt lat="43.64689" lon="6.2768">
        <ele>949.3</ele>
        <time>2012-05-04T12:09:24Z</time>
      </trkpt>
      <trkpt lat="43.6469" lon="6.2768">
        <ele>949.3</ele>
        <time>2012-05-04T12:09:25Z</time>
      </trkpt>
      <trkpt lat="43.64704" lon="6.27667">
        <ele>945.8</ele>
        <time>2012-05-04T12:09:57Z</time>
      </trkpt>
      <trkpt lat="43.64712" lon="6.27665">
        <ele>945.3</ele>
        <time>2012-05-04T12:10:07Z</time>
      </trkpt>
      <trkpt lat="43.64719" lon="6.27659">
        <ele>943.6</ele>
        <time>2012-05-04T12:10:16Z</time>
      </trkpt>
      <trkpt lat="43.64727" lon="6.27656">
        <ele>942.7</ele>
        <time>2012-05-04T12:10:23Z</time>
      </trkpt>
      <trkpt lat="43.64732" lon="6.27647">
        <ele>941.8</ele>
        <time>2012-05-04T12:10:32Z</time>
      </trkpt>
      <trkpt lat="43.64733" lon="6.27647">
        <ele>941.5</ele>
        <time>2012-05-04T12:10:33Z</time>
      </trkpt>
      <trkpt lat="43.64744" lon="6.27634">
        <ele>939.6</ele>
        <time>2012-05-04T12:10:45Z</time>
      </trkpt>
      <trkpt lat="43.64752" lon="6.27627">
        <ele>937.6</ele>
        <time>2012-05-04T12:10:56Z</time>
      </trkpt>
      <trkpt lat="43.64758" lon="6.2762">
        <ele>936.8</ele>
        <time>2012-05-04T12:11:04Z</time>
      </trkpt>
      <trkpt lat="43.64766" lon="6.27616">
        <ele>935.5</ele>
        <time>2012-05-04T12:11:11Z</time>
      </trkpt>
      <trkpt lat="43.6477" lon="6.27606">
        <ele>935.5</ele>
        <time>2012-05-04T12:11:19Z</time>
      </trkpt>
      <trkpt lat="43.64774" lon="6.27596">
        <ele>936.1</ele>
        <time>2012-05-04T12:11:27Z</time>
      </trkpt>
      <trkpt lat="43.64779" lon="6.27586">
        <ele>934.3</ele>
        <time>2012-05-04T12:11:43Z</time>
      </trkpt>
      <trkpt lat="43.6478" lon="6.27586">
        <ele>934.2</ele>
        <time>2012-05-04T12:11:44Z</time>
      </trkpt>
      <trkpt lat="43.64788" lon="6.27565">
        <ele>931.5</ele>
        <time>2012-05-04T12:12:04Z</time>
      </trkpt>
      <trkpt lat="43.64791" lon="6.27554">
        <ele>929.9</ele>
        <time>2012-05-04T12:12:13Z</time>
      </trkpt>
      <trkpt lat="43.6479" lon="6.27543">
        <ele>929</ele>
        <time>2012-05-04T12:12:22Z</time>
      </trkpt>
      <trkpt lat="43.64788" lon="6.27531">
        <ele>926.8</ele>
        <time>2012-05-04T12:12:35Z</time>
      </trkpt>
      <trkpt lat="43.64782" lon="6.27522">
        <ele>925.1</ele>
        <time>2012-05-04T12:12:45Z</time>
      </trkpt>
      <trkpt lat="43.64781" lon="6.27521">
        <ele>924.7</ele>
        <time>2012-05-04T12:12:46Z</time>
      </trkpt>
      <trkpt lat="43.64771" lon="6.27504">
        <ele>922.3</ele>
        <time>2012-05-04T12:13:06Z</time>
      </trkpt>
      <trkpt lat="43.64767" lon="6.27494">
        <ele>920.6</ele>
        <time>2012-05-04T12:13:18Z</time>
      </trkpt>
      <trkpt lat="43.64763" lon="6.27483">
        <ele>919.9</ele>
        <time>2012-05-04T12:13:32Z</time>
      </trkpt>
      <trkpt lat="43.6476" lon="6.27471">
        <ele>918</ele>
        <time>2012-05-04T12:13:45Z</time>
      </trkpt>
      <trkpt lat="43.64755" lon="6.27461">
        <ele>915.4</ele>
        <time>2012-05-04T12:15:10Z</time>
      </trkpt>
      <trkpt lat="43.64755" lon="6.27461">
        <ele>915.1</ele>
        <time>2012-05-04T12:15:11Z</time>
      </trkpt>
      <trkpt lat="43.64771" lon="6.27466">
        <ele>909</ele>
        <time>2012-05-04T12:16:13Z</time>
      </trkpt>
      <trkpt lat="43.64772" lon="6.27466">
        <ele>908.8</ele>
        <time>2012-05-04T12:16:14Z</time>
      </trkpt>
      <trkpt lat="43.64787" lon="6.27472">
        <ele>905.3</ele>
        <time>2012-05-04T12:16:54Z</time>
      </trkpt>
      <trkpt lat="43.64795" lon="6.27468">
        <ele>904.1</ele>
        <time>2012-05-04T12:17:03Z</time>
      </trkpt>
      <trkpt lat="43.64803" lon="6.27474">
        <ele>904.5</ele>
        <time>2012-05-04T12:17:31Z</time>
      </trkpt>
      <trkpt lat="43.64804" lon="6.27474">
        <ele>903.5</ele>
        <time>2012-05-04T12:17:32Z</time>
      </trkpt>
      <trkpt lat="43.6482" lon="6.27481">
        <ele>901</ele>
        <time>2012-05-04T12:17:59Z</time>
      </trkpt>
      <trkpt lat="43.64828" lon="6.27486">
        <ele>900</ele>
        <time>2012-05-04T12:18:14Z</time>
      </trkpt>
      <trkpt lat="43.64835" lon="6.27493">
        <ele>897.6</ele>
        <time>2012-05-04T12:18:41Z</time>
      </trkpt>
      <trkpt lat="43.64835" lon="6.27493">
        <ele>897.9</ele>
        <time>2012-05-04T12:18:42Z</time>
      </trkpt>
      <trkpt lat="43.6485" lon="6.27507">
        <ele>894.3</ele>
        <time>2012-05-04T12:19:26Z</time>
      </trkpt>
      <trkpt lat="43.64854" lon="6.27517">
        <ele>892.7</ele>
        <time>2012-05-04T12:19:54Z</time>
      </trkpt>
      <trkpt lat="43.64855" lon="6.27518">
        <ele>892.7</ele>
        <time>2012-05-04T12:19:55Z</time>
      </trkpt>
      <trkpt lat="43.64865" lon="6.27536">
        <ele>889.7</ele>
        <time>2012-05-04T12:20:23Z</time>
      </trkpt>
      <trkpt lat="43.64872" lon="6.27543">
        <ele>888.1</ele>
        <time>2012-05-04T12:20:42Z</time>
      </trkpt>
      <trkpt lat="43.6488" lon="6.27548">
        <ele>888.6</ele>
        <time>2012-05-04T12:21:05Z</time>
      </trkpt>
      <trkpt lat="43.64881" lon="6.27548">
        <ele>888</ele>
        <time>2012-05-04T12:21:06Z</time>
      </trkpt>
      <trkpt lat="43.64891" lon="6.27567">
        <ele>887.7</ele>
        <time>2012-05-04T12:22:22Z</time>
      </trkpt>
      <trkpt lat="43.64892" lon="6.27567">
        <ele>887.9</ele>
        <time>2012-05-04T12:22:23Z</time>
      </trkpt>
      <trkpt lat="43.64907" lon="6.27574">
        <ele>888.9</ele>
        <time>2012-05-04T12:22:46Z</time>
      </trkpt>
      <trkpt lat="43.64916" lon="6.27575">
        <ele>890.7</ele>
        <time>2012-05-04T12:23:00Z</time>
      </trkpt>
      <trkpt lat="43.64924" lon="6.27581">
        <ele>890</ele>
        <time>2012-05-04T12:23:14Z</time>
      </trkpt>
      <trkpt lat="43.64931" lon="6.27588">
        <ele>891.6</ele>
        <time>2012-05-04T12:23:30Z</time>
      </trkpt>
      <trkpt lat="43.64931" lon="6.27588">
        <ele>891.7</ele>
        <time>2012-05-04T12:23:31Z</time>
      </trkpt>
      <trkpt lat="43.64947" lon="6.27589">
        <ele>892</ele>
        <time>2012-05-04T12:24:06Z</time>
      </trkpt>
      <trkpt lat="43.64955" lon="6.27593">
        <ele>890.5</ele>
        <time>2012-05-04T12:24:15Z</time>
      </trkpt>
      <trkpt lat="43.64957" lon="6.27581">
        <ele>891.2</ele>
        <time>2012-05-04T12:24:48Z</time>
      </trkpt>
      <trkpt lat="43.64957" lon="6.2758">
        <ele>891</ele>
        <time>2012-05-04T12:24:49Z</time>
      </trkpt>
      <trkpt lat="43.64964" lon="6.27588">
        <ele>888.9</ele>
        <time>2012-05-04T12:26:47Z</time>
      </trkpt>
      <trkpt lat="43.64978" lon="6.27583">
        <ele>888.5</ele>
        <time>2012-05-04T12:26:59Z</time>
      </trkpt>
      <trkpt lat="43.64985" lon="6.27574">
        <ele>886.1</ele>
        <time>2012-05-04T12:27:14Z</time>
      </trkpt>
      <trkpt lat="43.64992" lon="6.27567">
        <ele>886</ele>
        <time>2012-05-04T12:27:22Z</time>
      </trkpt>
      <trkpt lat="43.64999" lon="6.27564">
        <ele>884.7</ele>
        <time>2012-05-04T12:27:29Z</time>
      </trkpt>
      <trkpt lat="43.65005" lon="6.27558">
        <ele>885.1</ele>
        <time>2012-05-04T12:27:35Z</time>
      </trkpt>
      <trkpt lat="43.65012" lon="6.27553">
        <ele>884.6</ele>
        <time>2012-05-04T12:27:42Z</time>
      </trkpt>
      <trkpt lat="43.65017" lon="6.27545">
        <ele>883</ele>
        <time>2012-05-04T12:28:20Z</time>
      </trkpt>
      <trkpt lat="43.65019" lon="6.27545">
        <ele>882.9</ele>
        <time>2012-05-04T12:28:21Z</time>
      </trkpt>
      <trkpt lat="43.65033" lon="6.27543">
        <ele>881.1</ele>
        <time>2012-05-04T12:28:30Z</time>
      </trkpt>
      <trkpt lat="43.65041" lon="6.27541">
        <ele>880.3</ele>
        <time>2012-05-04T12:28:36Z</time>
      </trkpt>
      <trkpt lat="43.65049" lon="6.27539">
        <ele>878.6</ele>
        <time>2012-05-04T12:28:45Z</time>
      </trkpt>
      <trkpt lat="43.65058" lon="6.27535">
        <ele>879.3</ele>
        <time>2012-05-04T12:29:10Z</time>
      </trkpt>
      <trkpt lat="43.65066" lon="6.27533">
        <ele>877.3</ele>
        <time>2012-05-04T12:29:31Z</time>
      </trkpt>
      <trkpt lat="43.65067" lon="6.27533">
        <ele>877.2</ele>
        <time>2012-05-04T12:29:32Z</time>
      </trkpt>
      <trkpt lat="43.65083" lon="6.27527">
        <ele>875</ele>
        <time>2012-05-04T12:30:08Z</time>
      </trkpt>
      <trkpt lat="43.65091" lon="6.27524">
        <ele>874.1</ele>
        <time>2012-05-04T12:30:21Z</time>
      </trkpt>
      <trkpt lat="43.651" lon="6.2752">
        <ele>872.8</ele>
        <time>2012-05-04T12:30:38Z</time>
      </trkpt>
      <trkpt lat="43.651" lon="6.2752">
        <ele>872.9</ele>
        <time>2012-05-04T12:30:39Z</time>
      </trkpt>
      <trkpt lat="43.65115" lon="6.2751">
        <ele>872.2</ele>
        <time>2012-05-04T12:31:02Z</time>
      </trkpt>
      <trkpt lat="43.65123" lon="6.27506">
        <ele>871</ele>
        <time>2012-05-04T12:31:19Z</time>
      </trkpt>
      <trkpt lat="43.65132" lon="6.27503">
        <ele>868.8</ele>
        <time>2012-05-04T12:31:34Z</time>
      </trkpt>
      <trkpt lat="43.6514" lon="6.27508">
        <ele>867.1</ele>
        <time>2012-05-04T12:32:24Z</time>
      </trkpt>
      <trkpt lat="43.6514" lon="6.27508">
        <ele>867.2</ele>
        <time>2012-05-04T12:32:25Z</time>
      </trkpt>
      <trkpt lat="43.65157" lon="6.27507">
        <ele>863.1</ele>
        <time>2012-05-04T12:32:59Z</time>
      </trkpt>
      <trkpt lat="43.65164" lon="6.27511">
        <ele>862</ele>
        <time>2012-05-04T12:33:07Z</time>
      </trkpt>
      <trkpt lat="43.65173" lon="6.27511">
        <ele>862.2</ele>
        <time>2012-05-04T12:33:16Z</time>
      </trkpt>
      <trkpt lat="43.6518" lon="6.27506">
        <ele>861.4</ele>
        <time>2012-05-04T12:33:20Z</time>
      </trkpt>
      <trkpt lat="43.65186" lon="6.275">
        <ele>861.3</ele>
        <time>2012-05-04T12:33:25Z</time>
      </trkpt>
      <trkpt lat="43.65187" lon="6.27499">
        <ele>861.1</ele>
        <time>2012-05-04T12:33:26Z</time>
      </trkpt>
      <trkpt lat="43.65198" lon="6.27483">
        <ele>861.2</ele>
        <time>2012-05-04T12:33:49Z</time>
      </trkpt>
      <trkpt lat="43.65206" lon="6.27478">
        <ele>861.1</ele>
        <time>2012-05-04T12:34:01Z</time>
      </trkpt>
      <trkpt lat="43.65212" lon="6.27471">
        <ele>861.5</ele>
        <time>2012-05-04T12:34:17Z</time>
      </trkpt>
      <trkpt lat="43.65218" lon="6.27463">
        <ele>861.3</ele>
        <time>2012-05-04T12:34:23Z</time>
      </trkpt>
      <trkpt lat="43.65225" lon="6.27456">
        <ele>863</ele>
        <time>2012-05-04T12:34:35Z</time>
      </trkpt>
      <trkpt lat="43.65226" lon="6.27455">
        <ele>863.1</ele>
        <time>2012-05-04T12:34:36Z</time>
      </trkpt>
      <trkpt lat="43.65239" lon="6.27441">
        <ele>862.2</ele>
        <time>2012-05-04T12:35:01Z</time>
      </trkpt>
      <trkpt lat="43.65246" lon="6.27434">
        <ele>863.3</ele>
        <time>2012-05-04T12:35:16Z</time>
      </trkpt>
      <trkpt lat="43.65253" lon="6.27426">
        <ele>864.3</ele>
        <time>2012-05-04T12:35:26Z</time>
      </trkpt>
      <trkpt lat="43.6526" lon="6.27418">
        <ele>864.3</ele>
        <time>2012-05-04T12:35:36Z</time>
      </trkpt>
      <trkpt lat="43.6526" lon="6.27418">
        <ele>864.4</ele>
        <time>2012-05-04T12:35:37Z</time>
      </trkpt>
      <trkpt lat="43.65273" lon="6.27405">
        <ele>863.1</ele>
        <time>2012-05-04T12:36:00Z</time>
      </trkpt>
      <trkpt lat="43.65279" lon="6.27396">
        <ele>863.9</ele>
        <time>2012-05-04T12:36:08Z</time>
      </trkpt>
      <trkpt lat="43.65284" lon="6.27387">
        <ele>863.4</ele>
        <time>2012-05-04T12:36:27Z</time>
      </trkpt>
      <trkpt lat="43.65275" lon="6.27383">
        <ele>863.4</ele>
        <time>2012-05-04T12:36:57Z</time>
      </trkpt>
      <trkpt lat="43.65275" lon="6.27384">
        <ele>863.8</ele>
        <time>2012-05-04T12:36:58Z</time>
      </trkpt>
      <trkpt lat="43.6529" lon="6.27375">
        <ele>864.6</ele>
        <time>2012-05-04T12:37:31Z</time>
      </trkpt>
      <trkpt lat="43.65299" lon="6.27371">
        <ele>863.7</ele>
        <time>2012-05-04T12:37:38Z</time>
      </trkpt>
      <trkpt lat="43.65307" lon="6.27366">
        <ele>863</ele>
        <time>2012-05-04T12:37:48Z</time>
      </trkpt>
      <trkpt lat="43.65309" lon="6.27355">
        <ele>861.5</ele>
        <time>2012-05-04T12:38:20Z</time>
      </trkpt>
      <trkpt lat="43.6531" lon="6.27354">
        <ele>861.5</ele>
        <time>2012-05-04T12:38:21Z</time>
      </trkpt>
      <trkpt lat="43.6532" lon="6.27337">
        <ele>861</ele>
        <time>2012-05-04T12:38:46Z</time>
      </trkpt>
      <trkpt lat="43.65325" lon="6.27327">
        <ele>860.5</ele>
        <time>2012-05-04T12:38:58Z</time>
      </trkpt>
      <trkpt lat="43.65331" lon="6.27321">
        <ele>859.2</ele>
        <time>2012-05-04T12:39:05Z</time>
      </trkpt>
      <trkpt lat="43.65337" lon="6.27314">
        <ele>859.7</ele>
        <time>2012-05-04T12:39:11Z</time>
      </trkpt>
      <trkpt lat="43.65342" lon="6.27305">
        <ele>859.2</ele>
        <time>2012-05-04T12:39:18Z</time>
      </trkpt>
      <trkpt lat="43.65345" lon="6.27294">
        <ele>859</ele>
        <time>2012-05-04T12:39:26Z</time>
      </trkpt>
      <trkpt lat="43.65345" lon="6.27293">
        <ele>859</ele>
        <time>2012-05-04T12:39:27Z</time>
      </trkpt>
      <trkpt lat="43.65357" lon="6.27277">
        <ele>856.9</ele>
        <time>2012-05-04T12:39:55Z</time>
      </trkpt>
      <trkpt lat="43.65365" lon="6.27277">
        <ele>855.9</ele>
        <time>2012-05-04T12:40:24Z</time>
      </trkpt>
      <trkpt lat="43.65373" lon="6.27271">
        <ele>854.9</ele>
        <time>2012-05-04T12:40:34Z</time>
      </trkpt>
      <trkpt lat="43.65373" lon="6.2727">
        <ele>854.3</ele>
        <time>2012-05-04T12:40:35Z</time>
      </trkpt>
      <trkpt lat="43.65372" lon="6.27248">
        <ele>856</ele>
        <time>2012-05-04T12:40:58Z</time>
      </trkpt>
      <trkpt lat="43.65374" lon="6.27236">
        <ele>856.7</ele>
        <time>2012-05-04T12:41:20Z</time>
      </trkpt>
      <trkpt lat="43.65372" lon="6.27225">
        <ele>856.3</ele>
        <time>2012-05-04T12:41:35Z</time>
      </trkpt>
      <trkpt lat="43.65372" lon="6.27224">
        <ele>856.5</ele>
        <time>2012-05-04T12:41:36Z</time>
      </trkpt>
      <trkpt lat="43.65374" lon="6.27201">
        <ele>856.2</ele>
        <time>2012-05-04T12:42:11Z</time>
      </trkpt>
      <trkpt lat="43.65377" lon="6.27191">
        <ele>855.7</ele>
        <time>2012-05-04T12:42:19Z</time>
      </trkpt>
      <trkpt lat="43.6538" lon="6.2718">
        <ele>855.9</ele>
        <time>2012-05-04T12:42:28Z</time>
      </trkpt>
      <trkpt lat="43.65382" lon="6.27169">
        <ele>854.9</ele>
        <time>2012-05-04T12:42:36Z</time>
      </trkpt>
      <trkpt lat="43.65382" lon="6.27168">
        <ele>855</ele>
        <time>2012-05-04T12:42:37Z</time>
      </trkpt>
      <trkpt lat="43.65389" lon="6.27148">
        <ele>854.7</ele>
        <time>2012-05-04T12:42:58Z</time>
      </trkpt>
      <trkpt lat="43.65388" lon="6.27136">
        <ele>854.7</ele>
        <time>2012-05-04T12:43:12Z</time>
      </trkpt>
      <trkpt lat="43.65388" lon="6.27123">
        <ele>856.3</ele>
        <time>2012-05-04T12:43:26Z</time>
      </trkpt>
      <trkpt lat="43.65392" lon="6.27113">
        <ele>856.2</ele>
        <time>2012-05-04T12:43:38Z</time>
      </trkpt>
      <trkpt lat="43.65392" lon="6.27112">
        <ele>855.7</ele>
        <time>2012-05-04T12:43:39Z</time>
      </trkpt>
      <trkpt lat="43.654" lon="6.27091">
        <ele>854.4</ele>
        <time>2012-05-04T12:44:00Z</time>
      </trkpt>
      <trkpt lat="43.65405" lon="6.27081">
        <ele>854.7</ele>
        <time>2012-05-04T12:44:14Z</time>
      </trkpt>
      <trkpt lat="43.65402" lon="6.2707">
        <ele>854.4</ele>
        <time>2012-05-04T12:44:25Z</time>
      </trkpt>
      <trkpt lat="43.65399" lon="6.27059">
        <ele>854.4</ele>
        <time>2012-05-04T12:44:35Z</time>
      </trkpt>
      <trkpt lat="43.65393" lon="6.27052">
        <ele>854</ele>
        <time>2012-05-04T12:44:46Z</time>
      </trkpt>
      <trkpt lat="43.65392" lon="6.27051">
        <ele>853.8</ele>
        <time>2012-05-04T12:44:47Z</time>
      </trkpt>
      <trkpt lat="43.65391" lon="6.27031">
        <ele>854.6</ele>
        <time>2012-05-04T12:45:09Z</time>
      </trkpt>
      <trkpt lat="43.65396" lon="6.27022">
        <ele>854.9</ele>
        <time>2012-05-04T12:45:20Z</time>
      </trkpt>
      <trkpt lat="43.65399" lon="6.2701">
        <ele>855.2</ele>
        <time>2012-05-04T12:45:32Z</time>
      </trkpt>
      <trkpt lat="43.65401" lon="6.26998">
        <ele>855.3</ele>
        <time>2012-05-04T12:45:44Z</time>
      </trkpt>
      <trkpt lat="43.65406" lon="6.26988">
        <ele>855.4</ele>
        <time>2012-05-04T12:45:54Z</time>
      </trkpt>
      <trkpt lat="43.65407" lon="6.26987">
        <ele>855.3</ele>
        <time>2012-05-04T12:45:55Z</time>
      </trkpt>
      <trkpt lat="43.65415" lon="6.26968">
        <ele>855.2</ele>
        <time>2012-05-04T12:46:20Z</time>
      </trkpt>
      <trkpt lat="43.65421" lon="6.2696">
        <ele>854.9</ele>
        <time>2012-05-04T12:46:30Z</time>
      </trkpt>
      <trkpt lat="43.65423" lon="6.26948">
        <ele>854.4</ele>
        <time>2012-05-04T12:46:45Z</time>
      </trkpt>
      <trkpt lat="43.65427" lon="6.26938">
        <ele>853.8</ele>
        <time>2012-05-04T12:46:57Z</time>
      </trkpt>
      <trkpt lat="43.65427" lon="6.26936">
        <ele>853.8</ele>
        <time>2012-05-04T12:46:58Z</time>
      </trkpt>
      <trkpt lat="43.65443" lon="6.26934">
        <ele>851.6</ele>
        <time>2012-05-04T12:47:46Z</time>
      </trkpt>
      <trkpt lat="43.6545" lon="6.26926">
        <ele>850</ele>
        <time>2012-05-04T12:47:57Z</time>
      </trkpt>
      <trkpt lat="43.65456" lon="6.26917">
        <ele>850.8</ele>
        <time>2012-05-04T12:48:16Z</time>
      </trkpt>
      <trkpt lat="43.65457" lon="6.26918">
        <ele>850.6</ele>
        <time>2012-05-04T12:48:17Z</time>
      </trkpt>
      <trkpt lat="43.6547" lon="6.26904">
        <ele>848.9</ele>
        <time>2012-05-04T12:48:48Z</time>
      </trkpt>
      <trkpt lat="43.65476" lon="6.26895">
        <ele>848.5</ele>
        <time>2012-05-04T12:49:03Z</time>
      </trkpt>
      <trkpt lat="43.65484" lon="6.26894">
        <ele>847.4</ele>
        <time>2012-05-04T12:49:21Z</time>
      </trkpt>
      <trkpt lat="43.65485" lon="6.26894">
        <ele>847.3</ele>
        <time>2012-05-04T12:49:22Z</time>
      </trkpt>
      <trkpt lat="43.65491" lon="6.26913">
        <ele>845.7</ele>
        <time>2012-05-04T12:50:01Z</time>
      </trkpt>
      <trkpt lat="43.65498" lon="6.26921">
        <ele>845.1</ele>
        <time>2012-05-04T12:50:17Z</time>
      </trkpt>
      <trkpt lat="43.65494" lon="6.26932">
        <ele>844</ele>
        <time>2012-05-04T12:50:28Z</time>
      </trkpt>
      <trkpt lat="43.65494" lon="6.26933">
        <ele>843.8</ele>
        <time>2012-05-04T12:50:29Z</time>
      </trkpt>
      <trkpt lat="43.65499" lon="6.26954">
        <ele>841.2</ele>
        <time>2012-05-04T12:50:55Z</time>
      </trkpt>
      <trkpt lat="43.65507" lon="6.26953">
        <ele>841.1</ele>
        <time>2012-05-04T12:51:03Z</time>
      </trkpt>
      <trkpt lat="43.65505" lon="6.26964">
        <ele>840.4</ele>
        <time>2012-05-04T12:51:28Z</time>
      </trkpt>
      <trkpt lat="43.65499" lon="6.26973">
        <ele>840.6</ele>
        <time>2012-05-04T12:51:38Z</time>
      </trkpt>
      <trkpt lat="43.65499" lon="6.26974">
        <ele>840.3</ele>
        <time>2012-05-04T12:51:39Z</time>
      </trkpt>
      <trkpt lat="43.6549" lon="6.26992">
        <ele>840.8</ele>
        <time>2012-05-04T12:51:57Z</time>
      </trkpt>
      <trkpt lat="43.65485" lon="6.27002">
        <ele>840.5</ele>
        <time>2012-05-04T12:52:07Z</time>
      </trkpt>
      <trkpt lat="43.65479" lon="6.2701">
        <ele>841.1</ele>
        <time>2012-05-04T12:52:21Z</time>
      </trkpt>
      <trkpt lat="43.65477" lon="6.27022">
        <ele>841.6</ele>
        <time>2012-05-04T12:52:29Z</time>
      </trkpt>
      <trkpt lat="43.65473" lon="6.27031">
        <ele>842</ele>
        <time>2012-05-04T12:52:36Z</time>
      </trkpt>
      <trkpt lat="43.65467" lon="6.27039">
        <ele>841.9</ele>
        <time>2012-05-04T12:52:44Z</time>
      </trkpt>
      <trkpt lat="43.65466" lon="6.27039">
        <ele>842</ele>
        <time>2012-05-04T12:52:45Z</time>
      </trkpt>
      <trkpt lat="43.65458" lon="6.2706">
        <ele>842.2</ele>
        <time>2012-05-04T12:53:08Z</time>
      </trkpt>
      <trkpt lat="43.65454" lon="6.2707">
        <ele>842.6</ele>
        <time>2012-05-04T12:53:14Z</time>
      </trkpt>
      <trkpt lat="43.65463" lon="6.27073">
        <ele>843.5</ele>
        <time>2012-05-04T12:53:50Z</time>
      </trkpt>
      <trkpt lat="43.65464" lon="6.27074">
        <ele>843.4</ele>
        <time>2012-05-04T12:53:51Z</time>
      </trkpt>
      <trkpt lat="43.65457" lon="6.27093">
        <ele>844.1</ele>
        <time>2012-05-04T12:54:10Z</time>
      </trkpt>
      <trkpt lat="43.65449" lon="6.27096">
        <ele>844.8</ele>
        <time>2012-05-04T12:54:16Z</time>
      </trkpt>
      <trkpt lat="43.65444" lon="6.27106">
        <ele>844.9</ele>
        <time>2012-05-04T12:54:26Z</time>
      </trkpt>
      <trkpt lat="43.65438" lon="6.27115">
        <ele>845</ele>
        <time>2012-05-04T12:54:34Z</time>
      </trkpt>
      <trkpt lat="43.65434" lon="6.27124">
        <ele>845.2</ele>
        <time>2012-05-04T12:54:46Z</time>
      </trkpt>
      <trkpt lat="43.65429" lon="6.27135">
        <ele>845</ele>
        <time>2012-05-04T12:54:55Z</time>
      </trkpt>
      <trkpt lat="43.65429" lon="6.27136">
        <ele>844.4</ele>
        <time>2012-05-04T12:54:56Z</time>
      </trkpt>
      <trkpt lat="43.65422" lon="6.27157">
        <ele>845</ele>
        <time>2012-05-04T12:55:12Z</time>
      </trkpt>
      <trkpt lat="43.65419" lon="6.27168">
        <ele>846.7</ele>
        <time>2012-05-04T12:55:26Z</time>
      </trkpt>
      <trkpt lat="43.65415" lon="6.27178">
        <ele>846.8</ele>
        <time>2012-05-04T12:55:34Z</time>
      </trkpt>
      <trkpt lat="43.65412" lon="6.27189">
        <ele>847.5</ele>
        <time>2012-05-04T12:55:44Z</time>
      </trkpt>
      <trkpt lat="43.65408" lon="6.27198">
        <ele>847</ele>
        <time>2012-05-04T12:55:55Z</time>
      </trkpt>
      <trkpt lat="43.65407" lon="6.27199">
        <ele>847</ele>
        <time>2012-05-04T12:55:56Z</time>
      </trkpt>
      <trkpt lat="43.65398" lon="6.27218">
        <ele>848.6</ele>
        <time>2012-05-04T12:56:14Z</time>
      </trkpt>
      <trkpt lat="43.65395" lon="6.27229">
        <ele>848.9</ele>
        <time>2012-05-04T12:56:28Z</time>
      </trkpt>
      <trkpt lat="43.65396" lon="6.27241">
        <ele>849.8</ele>
        <time>2012-05-04T12:56:35Z</time>
      </trkpt>
      <trkpt lat="43.65393" lon="6.27252">
        <ele>850.3</ele>
        <time>2012-05-04T12:56:43Z</time>
      </trkpt>
      <trkpt lat="43.65389" lon="6.27263">
        <ele>850.4</ele>
        <time>2012-05-04T12:56:52Z</time>
      </trkpt>
      <trkpt lat="43.65385" lon="6.27273">
        <ele>851.2</ele>
        <time>2012-05-04T12:57:01Z</time>
      </trkpt>
      <trkpt lat="43.65385" lon="6.27275">
        <ele>851.1</ele>
        <time>2012-05-04T12:57:02Z</time>
      </trkpt>
      <trkpt lat="43.65381" lon="6.27296">
        <ele>852.8</ele>
        <time>2012-05-04T12:57:22Z</time>
      </trkpt>
      <trkpt lat="43.65385" lon="6.27306">
        <ele>852</ele>
        <time>2012-05-04T12:57:37Z</time>
      </trkpt>
      <trkpt lat="43.65387" lon="6.27318">
        <ele>853.2</ele>
        <time>2012-05-04T12:57:46Z</time>
      </trkpt>
      <trkpt lat="43.65379" lon="6.27324">
        <ele>852.5</ele>
        <time>2012-05-04T12:57:52Z</time>
      </trkpt>
      <trkpt lat="43.65373" lon="6.27332">
        <ele>853.8</ele>
        <time>2012-05-04T12:58:01Z</time>
      </trkpt>
      <trkpt lat="43.65366" lon="6.27338">
        <ele>854</ele>
        <time>2012-05-04T12:58:08Z</time>
      </trkpt>
      <trkpt lat="43.65365" lon="6.27339">
        <ele>854</ele>
        <time>2012-05-04T12:58:09Z</time>
      </trkpt>
      <trkpt lat="43.65363" lon="6.2736">
        <ele>854.9</ele>
        <time>2012-05-04T12:58:30Z</time>
      </trkpt>
      <trkpt lat="43.65358" lon="6.27369">
        <ele>855.1</ele>
        <time>2012-05-04T12:58:37Z</time>
      </trkpt>
      <trkpt lat="43.6535" lon="6.27375">
        <ele>854.9</ele>
        <time>2012-05-04T12:59:10Z</time>
      </trkpt>
      <trkpt lat="43.65349" lon="6.27375">
        <ele>854.9</ele>
        <time>2012-05-04T12:59:11Z</time>
      </trkpt>
      <trkpt lat="43.65338" lon="6.27392">
        <ele>854.7</ele>
        <time>2012-05-04T12:59:51Z</time>
      </trkpt>
      <trkpt lat="43.65332" lon="6.27399">
        <ele>854</ele>
        <time>2012-05-04T12:59:59Z</time>
      </trkpt>
      <trkpt lat="43.65324" lon="6.27404">
        <ele>854.8</ele>
        <time>2012-05-04T13:00:07Z</time>
      </trkpt>
      <trkpt lat="43.65317" lon="6.27412">
        <ele>854.8</ele>
        <time>2012-05-04T13:00:17Z</time>
      </trkpt>
      <trkpt lat="43.65317" lon="6.27413">
        <ele>855</ele>
        <time>2012-05-04T13:00:18Z</time>
      </trkpt>
      <trkpt lat="43.65302" lon="6.27422">
        <ele>854.6</ele>
        <time>2012-05-04T13:00:34Z</time>
      </trkpt>
      <trkpt lat="43.65294" lon="6.27427">
        <ele>855.1</ele>
        <time>2012-05-04T13:00:41Z</time>
      </trkpt>
      <trkpt lat="43.65289" lon="6.27435">
        <ele>855.2</ele>
        <time>2012-05-04T13:00:48Z</time>
      </trkpt>
      <trkpt lat="43.65282" lon="6.27441">
        <ele>856</ele>
        <time>2012-05-04T13:00:57Z</time>
      </trkpt>
      <trkpt lat="43.65274" lon="6.27445">
        <ele>855.9</ele>
        <time>2012-05-04T13:01:06Z</time>
      </trkpt>
      <trkpt lat="43.65266" lon="6.27452">
        <ele>856.4</ele>
        <time>2012-05-04T13:01:15Z</time>
      </trkpt>
      <trkpt lat="43.65258" lon="6.27456">
        <ele>855.5</ele>
        <time>2012-05-04T13:01:27Z</time>
      </trkpt>
      <trkpt lat="43.65257" lon="6.27456">
        <ele>855.6</ele>
        <time>2012-05-04T13:01:28Z</time>
      </trkpt>
      <trkpt lat="43.65245" lon="6.27472">
        <ele>856.1</ele>
        <time>2012-05-04T13:01:44Z</time>
      </trkpt>
      <trkpt lat="43.65237" lon="6.27477">
        <ele>856</ele>
        <time>2012-05-04T13:01:52Z</time>
      </trkpt>
      <trkpt lat="43.65229" lon="6.27482">
        <ele>855.9</ele>
        <time>2012-05-04T13:01:58Z</time>
      </trkpt>
      <trkpt lat="43.65221" lon="6.27484">
        <ele>855.6</ele>
        <time>2012-05-04T13:02:06Z</time>
      </trkpt>
      <trkpt lat="43.65215" lon="6.27493">
        <ele>855.7</ele>
        <time>2012-05-04T13:02:22Z</time>
      </trkpt>
      <trkpt lat="43.65209" lon="6.27501">
        <ele>855.1</ele>
        <time>2012-05-04T13:02:58Z</time>
      </trkpt>
      <trkpt lat="43.65208" lon="6.27501">
        <ele>855.1</ele>
        <time>2012-05-04T13:02:59Z</time>
      </trkpt>
      <trkpt lat="43.6522" lon="6.27498">
        <ele>855.8</ele>
        <time>2012-05-04T13:05:14Z</time>
      </trkpt>
      <trkpt lat="43.65225" lon="6.27496">
        <ele>855.9</ele>
        <time>2012-05-04T13:05:15Z</time>
      </trkpt>
      <trkpt lat="43.6523" lon="6.27492">
        <ele>856.2</ele>
        <time>2012-05-04T13:05:16Z</time>
      </trkpt>
      <trkpt lat="43.65235" lon="6.27486">
        <ele>856.3</ele>
        <time>2012-05-04T13:05:17Z</time>
      </trkpt>
      <trkpt lat="43.65241" lon="6.27481">
        <ele>856.7</ele>
        <time>2012-05-04T13:05:18Z</time>
      </trkpt>
      <trkpt lat="43.65247" lon="6.27475">
        <ele>856.9</ele>
        <time>2012-05-04T13:05:19Z</time>
      </trkpt>
      <trkpt lat="43.65254" lon="6.27469">
        <ele>857</ele>
        <time>2012-05-04T13:05:20Z</time>
      </trkpt>
      <trkpt lat="43.65261" lon="6.27463">
        <ele>857.2</ele>
        <time>2012-05-04T13:05:21Z</time>
      </trkpt>
      <trkpt lat="43.65268" lon="6.27456">
        <ele>857</ele>
        <time>2012-05-04T13:05:22Z</time>
      </trkpt>
      <trkpt lat="43.65276" lon="6.2745">
        <ele>856.8</ele>
        <time>2012-05-04T13:05:23Z</time>
      </trkpt>
      <trkpt lat="43.65284" lon="6.27443">
        <ele>856.7</ele>
        <time>2012-05-04T13:05:24Z</time>
      </trkpt>
      <trkpt lat="43.65291" lon="6.27436">
        <ele>856.3</ele>
        <time>2012-05-04T13:05:25Z</time>
      </trkpt>
      <trkpt lat="43.65298" lon="6.27431">
        <ele>856</ele>
        <time>2012-05-04T13:05:26Z</time>
      </trkpt>
      <trkpt lat="43.65303" lon="6.27425">
        <ele>856</ele>
        <time>2012-05-04T13:05:27Z</time>
      </trkpt>
      <trkpt lat="43.65308" lon="6.2742">
        <ele>855.9</ele>
        <time>2012-05-04T13:05:28Z</time>
      </trkpt>
      <trkpt lat="43.65313" lon="6.27417">
        <ele>855.9</ele>
        <time>2012-05-04T13:05:29Z</time>
      </trkpt>
      <trkpt lat="43.6532" lon="6.2741">
        <ele>856.4</ele>
        <time>2012-05-04T13:05:31Z</time>
      </trkpt>
      <trkpt lat="43.65324" lon="6.27407">
        <ele>856.4</ele>
        <time>2012-05-04T13:05:32Z</time>
      </trkpt>
      <trkpt lat="43.65331" lon="6.274">
        <ele>856.5</ele>
        <time>2012-05-04T13:05:34Z</time>
      </trkpt>
      <trkpt lat="43.6534" lon="6.27401">
        <ele>855.8</ele>
        <time>2012-05-04T13:05:42Z</time>
      </trkpt>
      <trkpt lat="43.65343" lon="6.2739">
        <ele>855.8</ele>
        <time>2012-05-04T13:06:41Z</time>
      </trkpt>
      <trkpt lat="43.65345" lon="6.2739">
        <ele>856.1</ele>
        <time>2012-05-04T13:06:42Z</time>
      </trkpt>
      <trkpt lat="43.65353" lon="6.27371">
        <ele>856.3</ele>
        <time>2012-05-04T13:07:38Z</time>
      </trkpt>
      <trkpt lat="43.65355" lon="6.27362">
        <ele>856.7</ele>
        <time>2012-05-04T13:07:41Z</time>
      </trkpt>
      <trkpt lat="43.65358" lon="6.27353">
        <ele>856.8</ele>
        <time>2012-05-04T13:07:43Z</time>
      </trkpt>
      <trkpt lat="43.65361" lon="6.27348">
        <ele>856.9</ele>
        <time>2012-05-04T13:07:44Z</time>
      </trkpt>
    </trkseg>
  </trk>
</gpx>